<?xml version="1.0" encoding="UTF-8" standalone="no" ?>
<gpx xmlns="http://www.topografix.com/GPX/1/1" xmlns:xsi="http://www.w3.org/2001/XMLSchema-instance" xsi:schemaLocation="http://www.topografix.com/GPX/1/1 http://www.topografix.com/GPX/1/1/gpx.xsd" version="1.1" creator="VisuGPX - https://www.visugpx.com">
  <metadata>
    <name>83-D-Salernes</name>
    <desc><![CDATA[83-D-Salernes : sur la piste des templiers]]></desc>
  </metadata>
  <trk>
    <name><![CDATA[2017-12-03-D-salernes-co]]></name>
    <trkseg>
      <trkpt lat="43.54258" lon="6.31336">
        <ele>364.6</ele>
        <time>2017-12-03T07:51:14Z</time>
      </trkpt>
      <trkpt lat="43.54261" lon="6.31324">
        <ele>365</ele>
        <time>2017-12-03T07:51:26Z</time>
      </trkpt>
      <trkpt lat="43.5426" lon="6.31312">
        <ele>365.2</ele>
        <time>2017-12-03T07:51:36Z</time>
      </trkpt>
      <trkpt lat="43.54251" lon="6.31311">
        <ele>365.6</ele>
        <time>2017-12-03T07:52:17Z</time>
      </trkpt>
      <trkpt lat="43.54244" lon="6.31303">
        <ele>365.7</ele>
        <time>2017-12-03T07:54:37Z</time>
      </trkpt>
      <trkpt lat="43.54238" lon="6.31293">
        <ele>365.5</ele>
        <time>2017-12-03T07:54:50Z</time>
      </trkpt>
      <trkpt lat="43.54229" lon="6.31287">
        <ele>365.5</ele>
        <time>2017-12-03T07:55:00Z</time>
      </trkpt>
      <trkpt lat="43.54221" lon="6.31283">
        <ele>365.6</ele>
        <time>2017-12-03T07:55:12Z</time>
      </trkpt>
      <trkpt lat="43.54212" lon="6.31289">
        <ele>365.7</ele>
        <time>2017-12-03T07:55:20Z</time>
      </trkpt>
      <trkpt lat="43.54203" lon="6.31293">
        <ele>365.8</ele>
        <time>2017-12-03T07:55:30Z</time>
      </trkpt>
      <trkpt lat="43.54193" lon="6.31295">
        <ele>365.8</ele>
        <time>2017-12-03T07:55:39Z</time>
      </trkpt>
      <trkpt lat="43.54184" lon="6.31296">
        <ele>365.7</ele>
        <time>2017-12-03T07:55:48Z</time>
      </trkpt>
      <trkpt lat="43.54175" lon="6.31295">
        <ele>365.6</ele>
        <time>2017-12-03T07:55:56Z</time>
      </trkpt>
      <trkpt lat="43.54166" lon="6.31297">
        <ele>365.6</ele>
        <time>2017-12-03T07:56:06Z</time>
      </trkpt>
      <trkpt lat="43.54156" lon="6.31298">
        <ele>365.5</ele>
        <time>2017-12-03T07:56:15Z</time>
      </trkpt>
      <trkpt lat="43.54148" lon="6.3129">
        <ele>365.4</ele>
        <time>2017-12-03T07:56:26Z</time>
      </trkpt>
      <trkpt lat="43.54143" lon="6.3128">
        <ele>365.3</ele>
        <time>2017-12-03T07:56:36Z</time>
      </trkpt>
      <trkpt lat="43.5414" lon="6.31268">
        <ele>365.3</ele>
        <time>2017-12-03T07:56:45Z</time>
      </trkpt>
      <trkpt lat="43.54136" lon="6.31256">
        <ele>365.3</ele>
        <time>2017-12-03T07:56:56Z</time>
      </trkpt>
      <trkpt lat="43.54131" lon="6.31245">
        <ele>365.3</ele>
        <time>2017-12-03T07:57:05Z</time>
      </trkpt>
      <trkpt lat="43.54128" lon="6.31232">
        <ele>365.5</ele>
        <time>2017-12-03T07:57:15Z</time>
      </trkpt>
      <trkpt lat="43.54127" lon="6.31219">
        <ele>365.8</ele>
        <time>2017-12-03T07:57:24Z</time>
      </trkpt>
      <trkpt lat="43.54127" lon="6.31207">
        <ele>366</ele>
        <time>2017-12-03T07:57:33Z</time>
      </trkpt>
      <trkpt lat="43.54124" lon="6.31193">
        <ele>365.8</ele>
        <time>2017-12-03T07:57:42Z</time>
      </trkpt>
      <trkpt lat="43.54123" lon="6.3118">
        <ele>365.7</ele>
        <time>2017-12-03T07:57:51Z</time>
      </trkpt>
      <trkpt lat="43.54121" lon="6.31167">
        <ele>365.6</ele>
        <time>2017-12-03T07:57:59Z</time>
      </trkpt>
      <trkpt lat="43.54119" lon="6.31154">
        <ele>365.3</ele>
        <time>2017-12-03T07:58:07Z</time>
      </trkpt>
      <trkpt lat="43.54117" lon="6.31141">
        <ele>365</ele>
        <time>2017-12-03T07:58:15Z</time>
      </trkpt>
      <trkpt lat="43.54114" lon="6.31128">
        <ele>364.8</ele>
        <time>2017-12-03T07:58:22Z</time>
      </trkpt>
      <trkpt lat="43.54111" lon="6.31116">
        <ele>364.6</ele>
        <time>2017-12-03T07:58:32Z</time>
      </trkpt>
      <trkpt lat="43.5411" lon="6.31102">
        <ele>364.3</ele>
        <time>2017-12-03T07:58:41Z</time>
      </trkpt>
      <trkpt lat="43.54106" lon="6.31091">
        <ele>364</ele>
        <time>2017-12-03T07:58:47Z</time>
      </trkpt>
      <trkpt lat="43.54107" lon="6.31077">
        <ele>363.4</ele>
        <time>2017-12-03T07:58:57Z</time>
      </trkpt>
      <trkpt lat="43.54111" lon="6.31065">
        <ele>363.1</ele>
        <time>2017-12-03T07:59:05Z</time>
      </trkpt>
      <trkpt lat="43.54113" lon="6.31052">
        <ele>362.9</ele>
        <time>2017-12-03T07:59:13Z</time>
      </trkpt>
      <trkpt lat="43.54116" lon="6.3104">
        <ele>362.6</ele>
        <time>2017-12-03T07:59:22Z</time>
      </trkpt>
      <trkpt lat="43.54116" lon="6.31026">
        <ele>362.1</ele>
        <time>2017-12-03T07:59:31Z</time>
      </trkpt>
      <trkpt lat="43.54116" lon="6.31014">
        <ele>361.8</ele>
        <time>2017-12-03T07:59:39Z</time>
      </trkpt>
      <trkpt lat="43.54116" lon="6.31">
        <ele>361.5</ele>
        <time>2017-12-03T07:59:48Z</time>
      </trkpt>
      <trkpt lat="43.54115" lon="6.30988">
        <ele>361.4</ele>
        <time>2017-12-03T07:59:57Z</time>
      </trkpt>
      <trkpt lat="43.54115" lon="6.30975">
        <ele>361.3</ele>
        <time>2017-12-03T08:00:06Z</time>
      </trkpt>
      <trkpt lat="43.54115" lon="6.30962">
        <ele>361.2</ele>
        <time>2017-12-03T08:00:15Z</time>
      </trkpt>
      <trkpt lat="43.54115" lon="6.30949">
        <ele>361.1</ele>
        <time>2017-12-03T08:00:27Z</time>
      </trkpt>
      <trkpt lat="43.54117" lon="6.30936">
        <ele>361.2</ele>
        <time>2017-12-03T08:00:38Z</time>
      </trkpt>
      <trkpt lat="43.54116" lon="6.30923">
        <ele>361.3</ele>
        <time>2017-12-03T08:00:47Z</time>
      </trkpt>
      <trkpt lat="43.54108" lon="6.30916">
        <ele>361.4</ele>
        <time>2017-12-03T08:00:59Z</time>
      </trkpt>
      <trkpt lat="43.54099" lon="6.30912">
        <ele>361.4</ele>
        <time>2017-12-03T08:01:08Z</time>
      </trkpt>
      <trkpt lat="43.54099" lon="6.30899">
        <ele>361.4</ele>
        <time>2017-12-03T08:01:17Z</time>
      </trkpt>
      <trkpt lat="43.54103" lon="6.30887">
        <ele>361.5</ele>
        <time>2017-12-03T08:01:25Z</time>
      </trkpt>
      <trkpt lat="43.54101" lon="6.30874">
        <ele>361.7</ele>
        <time>2017-12-03T08:01:33Z</time>
      </trkpt>
      <trkpt lat="43.541" lon="6.30861">
        <ele>362.1</ele>
        <time>2017-12-03T08:01:41Z</time>
      </trkpt>
      <trkpt lat="43.54099" lon="6.30848">
        <ele>362.7</ele>
        <time>2017-12-03T08:01:50Z</time>
      </trkpt>
      <trkpt lat="43.541" lon="6.30835">
        <ele>363.6</ele>
        <time>2017-12-03T08:01:58Z</time>
      </trkpt>
      <trkpt lat="43.54103" lon="6.30822">
        <ele>364.4</ele>
        <time>2017-12-03T08:02:06Z</time>
      </trkpt>
      <trkpt lat="43.54104" lon="6.3081">
        <ele>365.6</ele>
        <time>2017-12-03T08:02:14Z</time>
      </trkpt>
      <trkpt lat="43.54102" lon="6.30797">
        <ele>366.9</ele>
        <time>2017-12-03T08:02:24Z</time>
      </trkpt>
      <trkpt lat="43.54103" lon="6.30784">
        <ele>368.9</ele>
        <time>2017-12-03T08:02:34Z</time>
      </trkpt>
      <trkpt lat="43.54101" lon="6.30771">
        <ele>370.8</ele>
        <time>2017-12-03T08:02:44Z</time>
      </trkpt>
      <trkpt lat="43.54101" lon="6.30758">
        <ele>372.5</ele>
        <time>2017-12-03T08:02:55Z</time>
      </trkpt>
      <trkpt lat="43.54105" lon="6.30746">
        <ele>373.7</ele>
        <time>2017-12-03T08:03:03Z</time>
      </trkpt>
      <trkpt lat="43.5411" lon="6.30735">
        <ele>375.3</ele>
        <time>2017-12-03T08:03:14Z</time>
      </trkpt>
      <trkpt lat="43.54115" lon="6.30723">
        <ele>377.2</ele>
        <time>2017-12-03T08:03:28Z</time>
      </trkpt>
      <trkpt lat="43.54119" lon="6.30711">
        <ele>378.6</ele>
        <time>2017-12-03T08:03:38Z</time>
      </trkpt>
      <trkpt lat="43.54122" lon="6.30699">
        <ele>380.5</ele>
        <time>2017-12-03T08:03:50Z</time>
      </trkpt>
      <trkpt lat="43.54124" lon="6.30685">
        <ele>381.6</ele>
        <time>2017-12-03T08:03:59Z</time>
      </trkpt>
      <trkpt lat="43.54125" lon="6.30673">
        <ele>382.6</ele>
        <time>2017-12-03T08:04:11Z</time>
      </trkpt>
      <trkpt lat="43.54133" lon="6.3067">
        <ele>384.7</ele>
        <time>2017-12-03T08:04:49Z</time>
      </trkpt>
      <trkpt lat="43.54142" lon="6.30672">
        <ele>386</ele>
        <time>2017-12-03T08:05:04Z</time>
      </trkpt>
      <trkpt lat="43.54151" lon="6.30675">
        <ele>387.9</ele>
        <time>2017-12-03T08:05:19Z</time>
      </trkpt>
      <trkpt lat="43.5416" lon="6.30678">
        <ele>389.2</ele>
        <time>2017-12-03T08:05:31Z</time>
      </trkpt>
      <trkpt lat="43.5417" lon="6.30679">
        <ele>391</ele>
        <time>2017-12-03T08:05:45Z</time>
      </trkpt>
      <trkpt lat="43.5418" lon="6.30678">
        <ele>392.1</ele>
        <time>2017-12-03T08:05:56Z</time>
      </trkpt>
      <trkpt lat="43.54189" lon="6.30678">
        <ele>393</ele>
        <time>2017-12-03T08:06:04Z</time>
      </trkpt>
      <trkpt lat="43.54198" lon="6.30674">
        <ele>393.8</ele>
        <time>2017-12-03T08:06:14Z</time>
      </trkpt>
      <trkpt lat="43.54207" lon="6.30674">
        <ele>394.5</ele>
        <time>2017-12-03T08:06:21Z</time>
      </trkpt>
      <trkpt lat="43.54217" lon="6.30672">
        <ele>395.2</ele>
        <time>2017-12-03T08:06:30Z</time>
      </trkpt>
      <trkpt lat="43.54226" lon="6.30671">
        <ele>395.8</ele>
        <time>2017-12-03T08:06:40Z</time>
      </trkpt>
      <trkpt lat="43.54236" lon="6.30674">
        <ele>396.2</ele>
        <time>2017-12-03T08:06:50Z</time>
      </trkpt>
      <trkpt lat="43.54245" lon="6.30675">
        <ele>396.8</ele>
        <time>2017-12-03T08:06:58Z</time>
      </trkpt>
      <trkpt lat="43.54255" lon="6.30677">
        <ele>397.2</ele>
        <time>2017-12-03T08:07:08Z</time>
      </trkpt>
      <trkpt lat="43.54263" lon="6.30681">
        <ele>397.6</ele>
        <time>2017-12-03T08:07:18Z</time>
      </trkpt>
      <trkpt lat="43.54273" lon="6.30681">
        <ele>397.9</ele>
        <time>2017-12-03T08:07:28Z</time>
      </trkpt>
      <trkpt lat="43.54282" lon="6.30684">
        <ele>398.2</ele>
        <time>2017-12-03T08:07:37Z</time>
      </trkpt>
      <trkpt lat="43.54291" lon="6.30687">
        <ele>398.6</ele>
        <time>2017-12-03T08:07:46Z</time>
      </trkpt>
      <trkpt lat="43.54301" lon="6.30685">
        <ele>399</ele>
        <time>2017-12-03T08:07:55Z</time>
      </trkpt>
      <trkpt lat="43.54311" lon="6.30686">
        <ele>399.4</ele>
        <time>2017-12-03T08:08:03Z</time>
      </trkpt>
      <trkpt lat="43.5432" lon="6.30685">
        <ele>399.6</ele>
        <time>2017-12-03T08:08:10Z</time>
      </trkpt>
      <trkpt lat="43.5433" lon="6.30685">
        <ele>399.8</ele>
        <time>2017-12-03T08:08:18Z</time>
      </trkpt>
      <trkpt lat="43.54339" lon="6.30684">
        <ele>399.7</ele>
        <time>2017-12-03T08:08:25Z</time>
      </trkpt>
      <trkpt lat="43.54349" lon="6.30686">
        <ele>399.5</ele>
        <time>2017-12-03T08:08:33Z</time>
      </trkpt>
      <trkpt lat="43.54359" lon="6.30686">
        <ele>399.3</ele>
        <time>2017-12-03T08:08:42Z</time>
      </trkpt>
      <trkpt lat="43.54368" lon="6.30686">
        <ele>399</ele>
        <time>2017-12-03T08:08:51Z</time>
      </trkpt>
      <trkpt lat="43.54377" lon="6.30683">
        <ele>398.4</ele>
        <time>2017-12-03T08:09:01Z</time>
      </trkpt>
      <trkpt lat="43.54386" lon="6.30683">
        <ele>397.8</ele>
        <time>2017-12-03T08:09:10Z</time>
      </trkpt>
      <trkpt lat="43.54396" lon="6.30682">
        <ele>397.2</ele>
        <time>2017-12-03T08:09:18Z</time>
      </trkpt>
      <trkpt lat="43.54406" lon="6.3068">
        <ele>396.6</ele>
        <time>2017-12-03T08:09:27Z</time>
      </trkpt>
      <trkpt lat="43.54416" lon="6.30678">
        <ele>396.2</ele>
        <time>2017-12-03T08:09:35Z</time>
      </trkpt>
      <trkpt lat="43.54425" lon="6.30678">
        <ele>395.6</ele>
        <time>2017-12-03T08:09:43Z</time>
      </trkpt>
      <trkpt lat="43.54435" lon="6.30681">
        <ele>394.6</ele>
        <time>2017-12-03T08:09:53Z</time>
      </trkpt>
      <trkpt lat="43.54444" lon="6.30684">
        <ele>393.8</ele>
        <time>2017-12-03T08:10:02Z</time>
      </trkpt>
      <trkpt lat="43.54453" lon="6.30689">
        <ele>393.4</ele>
        <time>2017-12-03T08:10:10Z</time>
      </trkpt>
      <trkpt lat="43.54462" lon="6.30695">
        <ele>393.1</ele>
        <time>2017-12-03T08:10:20Z</time>
      </trkpt>
      <trkpt lat="43.54471" lon="6.30698">
        <ele>392.8</ele>
        <time>2017-12-03T08:10:27Z</time>
      </trkpt>
      <trkpt lat="43.5448" lon="6.307">
        <ele>392.3</ele>
        <time>2017-12-03T08:10:34Z</time>
      </trkpt>
      <trkpt lat="43.5449" lon="6.30706">
        <ele>391.5</ele>
        <time>2017-12-03T08:10:42Z</time>
      </trkpt>
      <trkpt lat="43.54499" lon="6.30703">
        <ele>391</ele>
        <time>2017-12-03T08:10:51Z</time>
      </trkpt>
      <trkpt lat="43.54505" lon="6.30693">
        <ele>390.8</ele>
        <time>2017-12-03T08:10:58Z</time>
      </trkpt>
      <trkpt lat="43.54507" lon="6.30679">
        <ele>390.8</ele>
        <time>2017-12-03T08:11:07Z</time>
      </trkpt>
      <trkpt lat="43.54511" lon="6.30667">
        <ele>391.3</ele>
        <time>2017-12-03T08:11:16Z</time>
      </trkpt>
      <trkpt lat="43.54513" lon="6.30654">
        <ele>392.6</ele>
        <time>2017-12-03T08:11:27Z</time>
      </trkpt>
      <trkpt lat="43.54514" lon="6.30641">
        <ele>393.5</ele>
        <time>2017-12-03T08:11:36Z</time>
      </trkpt>
      <trkpt lat="43.54518" lon="6.30629">
        <ele>394.1</ele>
        <time>2017-12-03T08:11:44Z</time>
      </trkpt>
      <trkpt lat="43.5452" lon="6.30615">
        <ele>394.7</ele>
        <time>2017-12-03T08:11:53Z</time>
      </trkpt>
      <trkpt lat="43.54519" lon="6.30603">
        <ele>395.1</ele>
        <time>2017-12-03T08:12:02Z</time>
      </trkpt>
      <trkpt lat="43.5452" lon="6.30589">
        <ele>395.9</ele>
        <time>2017-12-03T08:12:12Z</time>
      </trkpt>
      <trkpt lat="43.54526" lon="6.30578">
        <ele>396.4</ele>
        <time>2017-12-03T08:12:24Z</time>
      </trkpt>
      <trkpt lat="43.54534" lon="6.30571">
        <ele>397.2</ele>
        <time>2017-12-03T08:12:34Z</time>
      </trkpt>
      <trkpt lat="43.54543" lon="6.30567">
        <ele>397.8</ele>
        <time>2017-12-03T08:12:46Z</time>
      </trkpt>
      <trkpt lat="43.54551" lon="6.30559">
        <ele>398.2</ele>
        <time>2017-12-03T08:12:56Z</time>
      </trkpt>
      <trkpt lat="43.54559" lon="6.30552">
        <ele>399.3</ele>
        <time>2017-12-03T08:13:07Z</time>
      </trkpt>
      <trkpt lat="43.54568" lon="6.3055">
        <ele>400.1</ele>
        <time>2017-12-03T08:13:15Z</time>
      </trkpt>
      <trkpt lat="43.54577" lon="6.30547">
        <ele>401</ele>
        <time>2017-12-03T08:13:24Z</time>
      </trkpt>
      <trkpt lat="43.54586" lon="6.3054">
        <ele>401.8</ele>
        <time>2017-12-03T08:13:34Z</time>
      </trkpt>
      <trkpt lat="43.54591" lon="6.30529">
        <ele>402.2</ele>
        <time>2017-12-03T08:13:41Z</time>
      </trkpt>
      <trkpt lat="43.54596" lon="6.30517">
        <ele>402.4</ele>
        <time>2017-12-03T08:13:47Z</time>
      </trkpt>
      <trkpt lat="43.54601" lon="6.30505">
        <ele>402.6</ele>
        <time>2017-12-03T08:13:55Z</time>
      </trkpt>
      <trkpt lat="43.54607" lon="6.30495">
        <ele>402.7</ele>
        <time>2017-12-03T08:14:04Z</time>
      </trkpt>
      <trkpt lat="43.54613" lon="6.30485">
        <ele>402.9</ele>
        <time>2017-12-03T08:14:13Z</time>
      </trkpt>
      <trkpt lat="43.54619" lon="6.30475">
        <ele>402.9</ele>
        <time>2017-12-03T08:14:20Z</time>
      </trkpt>
      <trkpt lat="43.54625" lon="6.30466">
        <ele>403</ele>
        <time>2017-12-03T08:14:28Z</time>
      </trkpt>
      <trkpt lat="43.54631" lon="6.30456">
        <ele>403</ele>
        <time>2017-12-03T08:14:34Z</time>
      </trkpt>
      <trkpt lat="43.54637" lon="6.30446">
        <ele>402.8</ele>
        <time>2017-12-03T08:14:42Z</time>
      </trkpt>
      <trkpt lat="43.54644" lon="6.30437">
        <ele>402.6</ele>
        <time>2017-12-03T08:14:47Z</time>
      </trkpt>
      <trkpt lat="43.54648" lon="6.30425">
        <ele>402.3</ele>
        <time>2017-12-03T08:14:57Z</time>
      </trkpt>
      <trkpt lat="43.5465" lon="6.30412">
        <ele>401.9</ele>
        <time>2017-12-03T08:15:06Z</time>
      </trkpt>
      <trkpt lat="43.54646" lon="6.30401">
        <ele>401.8</ele>
        <time>2017-12-03T08:15:50Z</time>
      </trkpt>
      <trkpt lat="43.54639" lon="6.30392">
        <ele>401.9</ele>
        <time>2017-12-03T08:16:03Z</time>
      </trkpt>
      <trkpt lat="43.5463" lon="6.30389">
        <ele>401.6</ele>
        <time>2017-12-03T08:16:16Z</time>
      </trkpt>
      <trkpt lat="43.54622" lon="6.30383">
        <ele>400.9</ele>
        <time>2017-12-03T08:16:25Z</time>
      </trkpt>
      <trkpt lat="43.54614" lon="6.30376">
        <ele>400.4</ele>
        <time>2017-12-03T08:16:33Z</time>
      </trkpt>
      <trkpt lat="43.54607" lon="6.30369">
        <ele>400</ele>
        <time>2017-12-03T08:16:42Z</time>
      </trkpt>
      <trkpt lat="43.54601" lon="6.30358">
        <ele>399.3</ele>
        <time>2017-12-03T08:16:52Z</time>
      </trkpt>
      <trkpt lat="43.54601" lon="6.30345">
        <ele>398.3</ele>
        <time>2017-12-03T08:17:02Z</time>
      </trkpt>
      <trkpt lat="43.54601" lon="6.30332">
        <ele>397.5</ele>
        <time>2017-12-03T08:17:16Z</time>
      </trkpt>
      <trkpt lat="43.54606" lon="6.30321">
        <ele>397.1</ele>
        <time>2017-12-03T08:17:30Z</time>
      </trkpt>
      <trkpt lat="43.54613" lon="6.30313">
        <ele>396.6</ele>
        <time>2017-12-03T08:17:44Z</time>
      </trkpt>
      <trkpt lat="43.54619" lon="6.30302">
        <ele>396</ele>
        <time>2017-12-03T08:17:53Z</time>
      </trkpt>
      <trkpt lat="43.54624" lon="6.30291">
        <ele>395.5</ele>
        <time>2017-12-03T08:18:02Z</time>
      </trkpt>
      <trkpt lat="43.54629" lon="6.3028">
        <ele>395.4</ele>
        <time>2017-12-03T08:18:11Z</time>
      </trkpt>
      <trkpt lat="43.54635" lon="6.3027">
        <ele>395.3</ele>
        <time>2017-12-03T08:18:20Z</time>
      </trkpt>
      <trkpt lat="43.54638" lon="6.30258">
        <ele>395.2</ele>
        <time>2017-12-03T08:18:28Z</time>
      </trkpt>
      <trkpt lat="43.54641" lon="6.30246">
        <ele>395</ele>
        <time>2017-12-03T08:18:37Z</time>
      </trkpt>
      <trkpt lat="43.54648" lon="6.30237">
        <ele>394.8</ele>
        <time>2017-12-03T08:18:47Z</time>
      </trkpt>
      <trkpt lat="43.54665" lon="6.30216">
        <ele>393</ele>
        <time>2017-12-03T08:38:43Z</time>
      </trkpt>
      <trkpt lat="43.54668" lon="6.30204">
        <ele>393.7</ele>
        <time>2017-12-03T08:38:56Z</time>
      </trkpt>
      <trkpt lat="43.5467" lon="6.3019">
        <ele>393.9</ele>
        <time>2017-12-03T08:39:06Z</time>
      </trkpt>
      <trkpt lat="43.54674" lon="6.30179">
        <ele>394</ele>
        <time>2017-12-03T08:39:15Z</time>
      </trkpt>
      <trkpt lat="43.54677" lon="6.30167">
        <ele>393.9</ele>
        <time>2017-12-03T08:39:26Z</time>
      </trkpt>
      <trkpt lat="43.54681" lon="6.30156">
        <ele>393.8</ele>
        <time>2017-12-03T08:39:36Z</time>
      </trkpt>
      <trkpt lat="43.54689" lon="6.30148">
        <ele>393.4</ele>
        <time>2017-12-03T08:39:47Z</time>
      </trkpt>
      <trkpt lat="43.54691" lon="6.30136">
        <ele>392.7</ele>
        <time>2017-12-03T08:40:08Z</time>
      </trkpt>
      <trkpt lat="43.547" lon="6.30134">
        <ele>392</ele>
        <time>2017-12-03T08:40:31Z</time>
      </trkpt>
      <trkpt lat="43.54692" lon="6.30141">
        <ele>391.8</ele>
        <time>2017-12-03T08:41:33Z</time>
      </trkpt>
      <trkpt lat="43.54693" lon="6.30128">
        <ele>391.9</ele>
        <time>2017-12-03T08:41:50Z</time>
      </trkpt>
      <trkpt lat="43.547" lon="6.3012">
        <ele>392.1</ele>
        <time>2017-12-03T08:43:42Z</time>
      </trkpt>
      <trkpt lat="43.54698" lon="6.30108">
        <ele>392.3</ele>
        <time>2017-12-03T08:44:10Z</time>
      </trkpt>
      <trkpt lat="43.54692" lon="6.30097">
        <ele>392.2</ele>
        <time>2017-12-03T08:44:22Z</time>
      </trkpt>
      <trkpt lat="43.54683" lon="6.301">
        <ele>392</ele>
        <time>2017-12-03T08:44:33Z</time>
      </trkpt>
      <trkpt lat="43.54677" lon="6.30089">
        <ele>391.2</ele>
        <time>2017-12-03T08:44:57Z</time>
      </trkpt>
      <trkpt lat="43.54673" lon="6.30078">
        <ele>391</ele>
        <time>2017-12-03T08:45:07Z</time>
      </trkpt>
      <trkpt lat="43.54666" lon="6.30069">
        <ele>390.9</ele>
        <time>2017-12-03T08:45:20Z</time>
      </trkpt>
      <trkpt lat="43.54657" lon="6.30066">
        <ele>390.8</ele>
        <time>2017-12-03T08:45:27Z</time>
      </trkpt>
      <trkpt lat="43.54648" lon="6.30068">
        <ele>390.6</ele>
        <time>2017-12-03T08:45:35Z</time>
      </trkpt>
      <trkpt lat="43.5464" lon="6.3006">
        <ele>389.9</ele>
        <time>2017-12-03T08:45:48Z</time>
      </trkpt>
      <trkpt lat="43.54632" lon="6.30053">
        <ele>388.4</ele>
        <time>2017-12-03T08:46:14Z</time>
      </trkpt>
      <trkpt lat="43.54625" lon="6.30045">
        <ele>387.5</ele>
        <time>2017-12-03T08:46:35Z</time>
      </trkpt>
      <trkpt lat="43.54618" lon="6.30036">
        <ele>387.2</ele>
        <time>2017-12-03T08:46:45Z</time>
      </trkpt>
      <trkpt lat="43.54611" lon="6.30027">
        <ele>386.8</ele>
        <time>2017-12-03T08:46:56Z</time>
      </trkpt>
      <trkpt lat="43.54604" lon="6.3002">
        <ele>386.6</ele>
        <time>2017-12-03T08:47:06Z</time>
      </trkpt>
      <trkpt lat="43.54598" lon="6.3001">
        <ele>386.4</ele>
        <time>2017-12-03T08:47:19Z</time>
      </trkpt>
      <trkpt lat="43.54591" lon="6.30001">
        <ele>385.9</ele>
        <time>2017-12-03T08:47:46Z</time>
      </trkpt>
      <trkpt lat="43.54583" lon="6.29995">
        <ele>385.6</ele>
        <time>2017-12-03T08:47:58Z</time>
      </trkpt>
      <trkpt lat="43.54573" lon="6.29995">
        <ele>385.5</ele>
        <time>2017-12-03T08:48:09Z</time>
      </trkpt>
      <trkpt lat="43.54564" lon="6.29994">
        <ele>385.6</ele>
        <time>2017-12-03T08:48:28Z</time>
      </trkpt>
      <trkpt lat="43.54555" lon="6.29997">
        <ele>385.8</ele>
        <time>2017-12-03T08:48:46Z</time>
      </trkpt>
      <trkpt lat="43.54546" lon="6.30002">
        <ele>385.7</ele>
        <time>2017-12-03T08:48:56Z</time>
      </trkpt>
      <trkpt lat="43.54537" lon="6.30001">
        <ele>385.7</ele>
        <time>2017-12-03T08:49:07Z</time>
      </trkpt>
      <trkpt lat="43.54528" lon="6.30003">
        <ele>385.7</ele>
        <time>2017-12-03T08:49:20Z</time>
      </trkpt>
      <trkpt lat="43.54519" lon="6.3">
        <ele>385.7</ele>
        <time>2017-12-03T08:49:34Z</time>
      </trkpt>
      <trkpt lat="43.54513" lon="6.30008">
        <ele>386.2</ele>
        <time>2017-12-03T08:50:01Z</time>
      </trkpt>
      <trkpt lat="43.5451" lon="6.3002">
        <ele>385.8</ele>
        <time>2017-12-03T08:50:24Z</time>
      </trkpt>
      <trkpt lat="43.54501" lon="6.30025">
        <ele>385.4</ele>
        <time>2017-12-03T08:50:40Z</time>
      </trkpt>
      <trkpt lat="43.54491" lon="6.30023">
        <ele>385.9</ele>
        <time>2017-12-03T08:50:57Z</time>
      </trkpt>
      <trkpt lat="43.54481" lon="6.30026">
        <ele>386</ele>
        <time>2017-12-03T08:51:06Z</time>
      </trkpt>
      <trkpt lat="43.54472" lon="6.30028">
        <ele>386.2</ele>
        <time>2017-12-03T08:51:17Z</time>
      </trkpt>
      <trkpt lat="43.54463" lon="6.30028">
        <ele>386.5</ele>
        <time>2017-12-03T08:51:30Z</time>
      </trkpt>
      <trkpt lat="43.54454" lon="6.30034">
        <ele>386.7</ele>
        <time>2017-12-03T08:51:43Z</time>
      </trkpt>
      <trkpt lat="43.54446" lon="6.3004">
        <ele>386.9</ele>
        <time>2017-12-03T08:52:08Z</time>
      </trkpt>
      <trkpt lat="43.54437" lon="6.30041">
        <ele>387</ele>
        <time>2017-12-03T08:52:23Z</time>
      </trkpt>
      <trkpt lat="43.54427" lon="6.30036">
        <ele>387.4</ele>
        <time>2017-12-03T08:52:44Z</time>
      </trkpt>
      <trkpt lat="43.54418" lon="6.30037">
        <ele>387.5</ele>
        <time>2017-12-03T08:52:55Z</time>
      </trkpt>
      <trkpt lat="43.54408" lon="6.3004">
        <ele>387.6</ele>
        <time>2017-12-03T08:53:05Z</time>
      </trkpt>
      <trkpt lat="43.54399" lon="6.30039">
        <ele>387.6</ele>
        <time>2017-12-03T08:53:17Z</time>
      </trkpt>
      <trkpt lat="43.54389" lon="6.30033">
        <ele>387.7</ele>
        <time>2017-12-03T08:53:36Z</time>
      </trkpt>
      <trkpt lat="43.54381" lon="6.30027">
        <ele>387.7</ele>
        <time>2017-12-03T08:53:44Z</time>
      </trkpt>
      <trkpt lat="43.54378" lon="6.30015">
        <ele>387.8</ele>
        <time>2017-12-03T08:53:55Z</time>
      </trkpt>
      <trkpt lat="43.54369" lon="6.30018">
        <ele>388</ele>
        <time>2017-12-03T08:54:08Z</time>
      </trkpt>
      <trkpt lat="43.54362" lon="6.30027">
        <ele>388.1</ele>
        <time>2017-12-03T08:54:19Z</time>
      </trkpt>
      <trkpt lat="43.54353" lon="6.3003">
        <ele>388.3</ele>
        <time>2017-12-03T08:54:29Z</time>
      </trkpt>
      <trkpt lat="43.54344" lon="6.30032">
        <ele>388.3</ele>
        <time>2017-12-03T08:54:38Z</time>
      </trkpt>
      <trkpt lat="43.54335" lon="6.30029">
        <ele>388.4</ele>
        <time>2017-12-03T08:54:56Z</time>
      </trkpt>
      <trkpt lat="43.54331" lon="6.30017">
        <ele>388.7</ele>
        <time>2017-12-03T08:55:14Z</time>
      </trkpt>
      <trkpt lat="43.54335" lon="6.30005">
        <ele>388.8</ele>
        <time>2017-12-03T08:55:30Z</time>
      </trkpt>
      <trkpt lat="43.54342" lon="6.29997">
        <ele>388.8</ele>
        <time>2017-12-03T08:55:41Z</time>
      </trkpt>
      <trkpt lat="43.54351" lon="6.29991">
        <ele>389.2</ele>
        <time>2017-12-03T08:55:51Z</time>
      </trkpt>
      <trkpt lat="43.54358" lon="6.29981">
        <ele>389.3</ele>
        <time>2017-12-03T08:55:59Z</time>
      </trkpt>
      <trkpt lat="43.54366" lon="6.29975">
        <ele>389.4</ele>
        <time>2017-12-03T08:56:07Z</time>
      </trkpt>
      <trkpt lat="43.54372" lon="6.29965">
        <ele>389.4</ele>
        <time>2017-12-03T08:56:15Z</time>
      </trkpt>
      <trkpt lat="43.54378" lon="6.29955">
        <ele>389.5</ele>
        <time>2017-12-03T08:56:25Z</time>
      </trkpt>
      <trkpt lat="43.54385" lon="6.29946">
        <ele>389.6</ele>
        <time>2017-12-03T08:56:34Z</time>
      </trkpt>
      <trkpt lat="43.54392" lon="6.29937">
        <ele>390</ele>
        <time>2017-12-03T08:56:44Z</time>
      </trkpt>
      <trkpt lat="43.544" lon="6.29928">
        <ele>390.5</ele>
        <time>2017-12-03T08:56:53Z</time>
      </trkpt>
      <trkpt lat="43.54408" lon="6.2992">
        <ele>390.7</ele>
        <time>2017-12-03T08:57:01Z</time>
      </trkpt>
      <trkpt lat="43.54415" lon="6.29912">
        <ele>390.6</ele>
        <time>2017-12-03T08:57:09Z</time>
      </trkpt>
      <trkpt lat="43.54421" lon="6.29901">
        <ele>390.4</ele>
        <time>2017-12-03T08:57:18Z</time>
      </trkpt>
      <trkpt lat="43.54427" lon="6.29891">
        <ele>390.6</ele>
        <time>2017-12-03T08:57:27Z</time>
      </trkpt>
      <trkpt lat="43.54431" lon="6.29879">
        <ele>390.5</ele>
        <time>2017-12-03T08:57:42Z</time>
      </trkpt>
      <trkpt lat="43.54436" lon="6.29869">
        <ele>390.5</ele>
        <time>2017-12-03T08:57:50Z</time>
      </trkpt>
      <trkpt lat="43.54442" lon="6.29858">
        <ele>390.6</ele>
        <time>2017-12-03T08:57:59Z</time>
      </trkpt>
      <trkpt lat="43.54448" lon="6.29849">
        <ele>391</ele>
        <time>2017-12-03T08:58:10Z</time>
      </trkpt>
      <trkpt lat="43.54454" lon="6.2984">
        <ele>391.3</ele>
        <time>2017-12-03T08:58:21Z</time>
      </trkpt>
      <trkpt lat="43.54463" lon="6.29833">
        <ele>391.5</ele>
        <time>2017-12-03T08:58:32Z</time>
      </trkpt>
      <trkpt lat="43.54468" lon="6.29823">
        <ele>391.6</ele>
        <time>2017-12-03T08:58:40Z</time>
      </trkpt>
      <trkpt lat="43.5447" lon="6.29811">
        <ele>391.8</ele>
        <time>2017-12-03T08:58:49Z</time>
      </trkpt>
      <trkpt lat="43.54474" lon="6.29798">
        <ele>391.8</ele>
        <time>2017-12-03T08:58:58Z</time>
      </trkpt>
      <trkpt lat="43.54479" lon="6.29787">
        <ele>391.9</ele>
        <time>2017-12-03T08:59:07Z</time>
      </trkpt>
      <trkpt lat="43.54485" lon="6.29778">
        <ele>391.9</ele>
        <time>2017-12-03T08:59:15Z</time>
      </trkpt>
      <trkpt lat="43.54492" lon="6.29769">
        <ele>391.9</ele>
        <time>2017-12-03T08:59:23Z</time>
      </trkpt>
      <trkpt lat="43.54501" lon="6.29761">
        <ele>391.8</ele>
        <time>2017-12-03T08:59:32Z</time>
      </trkpt>
      <trkpt lat="43.54508" lon="6.29753">
        <ele>391.6</ele>
        <time>2017-12-03T08:59:39Z</time>
      </trkpt>
      <trkpt lat="43.54515" lon="6.29744">
        <ele>391.5</ele>
        <time>2017-12-03T08:59:48Z</time>
      </trkpt>
      <trkpt lat="43.54521" lon="6.29736">
        <ele>391.3</ele>
        <time>2017-12-03T08:59:58Z</time>
      </trkpt>
      <trkpt lat="43.5453" lon="6.29729">
        <ele>391.3</ele>
        <time>2017-12-03T09:00:05Z</time>
      </trkpt>
      <trkpt lat="43.54538" lon="6.29724">
        <ele>391.2</ele>
        <time>2017-12-03T09:00:12Z</time>
      </trkpt>
      <trkpt lat="43.54547" lon="6.29719">
        <ele>391</ele>
        <time>2017-12-03T09:00:31Z</time>
      </trkpt>
      <trkpt lat="43.54555" lon="6.29713">
        <ele>390.8</ele>
        <time>2017-12-03T09:00:45Z</time>
      </trkpt>
      <trkpt lat="43.54564" lon="6.29709">
        <ele>390.8</ele>
        <time>2017-12-03T09:00:54Z</time>
      </trkpt>
      <trkpt lat="43.54573" lon="6.29705">
        <ele>390.9</ele>
        <time>2017-12-03T09:01:05Z</time>
      </trkpt>
      <trkpt lat="43.54581" lon="6.29697">
        <ele>391</ele>
        <time>2017-12-03T09:01:12Z</time>
      </trkpt>
      <trkpt lat="43.54589" lon="6.29689">
        <ele>391.1</ele>
        <time>2017-12-03T09:01:20Z</time>
      </trkpt>
      <trkpt lat="43.54598" lon="6.29683">
        <ele>390.8</ele>
        <time>2017-12-03T09:01:30Z</time>
      </trkpt>
      <trkpt lat="43.54606" lon="6.29677">
        <ele>390.4</ele>
        <time>2017-12-03T09:01:40Z</time>
      </trkpt>
      <trkpt lat="43.54614" lon="6.29669">
        <ele>390.1</ele>
        <time>2017-12-03T09:01:50Z</time>
      </trkpt>
      <trkpt lat="43.54618" lon="6.29657">
        <ele>389.9</ele>
        <time>2017-12-03T09:01:57Z</time>
      </trkpt>
      <trkpt lat="43.5462" lon="6.29643">
        <ele>389.4</ele>
        <time>2017-12-03T09:02:05Z</time>
      </trkpt>
      <trkpt lat="43.54624" lon="6.29632">
        <ele>388.9</ele>
        <time>2017-12-03T09:02:13Z</time>
      </trkpt>
      <trkpt lat="43.54624" lon="6.29618">
        <ele>388.6</ele>
        <time>2017-12-03T09:02:19Z</time>
      </trkpt>
      <trkpt lat="43.54626" lon="6.29605">
        <ele>388.4</ele>
        <time>2017-12-03T09:02:27Z</time>
      </trkpt>
      <trkpt lat="43.54628" lon="6.29592">
        <ele>388.3</ele>
        <time>2017-12-03T09:02:36Z</time>
      </trkpt>
      <trkpt lat="43.5463" lon="6.2958">
        <ele>388.2</ele>
        <time>2017-12-03T09:02:47Z</time>
      </trkpt>
      <trkpt lat="43.5463" lon="6.29567">
        <ele>388.2</ele>
        <time>2017-12-03T09:02:54Z</time>
      </trkpt>
      <trkpt lat="43.54631" lon="6.29554">
        <ele>388</ele>
        <time>2017-12-03T09:03:03Z</time>
      </trkpt>
      <trkpt lat="43.54629" lon="6.29542">
        <ele>388</ele>
        <time>2017-12-03T09:03:13Z</time>
      </trkpt>
      <trkpt lat="43.54629" lon="6.29529">
        <ele>388</ele>
        <time>2017-12-03T09:03:21Z</time>
      </trkpt>
      <trkpt lat="43.5463" lon="6.29515">
        <ele>388.1</ele>
        <time>2017-12-03T09:03:27Z</time>
      </trkpt>
      <trkpt lat="43.54633" lon="6.29502">
        <ele>388.2</ele>
        <time>2017-12-03T09:03:35Z</time>
      </trkpt>
      <trkpt lat="43.54636" lon="6.29489">
        <ele>388.3</ele>
        <time>2017-12-03T09:03:45Z</time>
      </trkpt>
      <trkpt lat="43.54644" lon="6.29482">
        <ele>388.5</ele>
        <time>2017-12-03T09:03:53Z</time>
      </trkpt>
      <trkpt lat="43.54652" lon="6.29476">
        <ele>388.8</ele>
        <time>2017-12-03T09:04:01Z</time>
      </trkpt>
      <trkpt lat="43.54657" lon="6.29466">
        <ele>389.1</ele>
        <time>2017-12-03T09:04:11Z</time>
      </trkpt>
      <trkpt lat="43.54663" lon="6.29455">
        <ele>389.3</ele>
        <time>2017-12-03T09:04:18Z</time>
      </trkpt>
      <trkpt lat="43.5467" lon="6.29445">
        <ele>389.5</ele>
        <time>2017-12-03T09:04:26Z</time>
      </trkpt>
      <trkpt lat="43.54677" lon="6.29435">
        <ele>389.7</ele>
        <time>2017-12-03T09:04:34Z</time>
      </trkpt>
      <trkpt lat="43.54683" lon="6.29425">
        <ele>390.1</ele>
        <time>2017-12-03T09:04:41Z</time>
      </trkpt>
      <trkpt lat="43.5469" lon="6.29414">
        <ele>390.6</ele>
        <time>2017-12-03T09:04:52Z</time>
      </trkpt>
      <trkpt lat="43.54695" lon="6.29403">
        <ele>390.9</ele>
        <time>2017-12-03T09:05:00Z</time>
      </trkpt>
      <trkpt lat="43.547" lon="6.29393">
        <ele>391.2</ele>
        <time>2017-12-03T09:05:08Z</time>
      </trkpt>
      <trkpt lat="43.54705" lon="6.29382">
        <ele>391.7</ele>
        <time>2017-12-03T09:05:17Z</time>
      </trkpt>
      <trkpt lat="43.54712" lon="6.29373">
        <ele>392.5</ele>
        <time>2017-12-03T09:05:25Z</time>
      </trkpt>
      <trkpt lat="43.54718" lon="6.29363">
        <ele>393.3</ele>
        <time>2017-12-03T09:05:34Z</time>
      </trkpt>
      <trkpt lat="43.54724" lon="6.29352">
        <ele>393.7</ele>
        <time>2017-12-03T09:05:41Z</time>
      </trkpt>
      <trkpt lat="43.54733" lon="6.29346">
        <ele>393.3</ele>
        <time>2017-12-03T09:05:55Z</time>
      </trkpt>
      <trkpt lat="43.54742" lon="6.29349">
        <ele>392.2</ele>
        <time>2017-12-03T09:06:08Z</time>
      </trkpt>
      <trkpt lat="43.54751" lon="6.29342">
        <ele>391.8</ele>
        <time>2017-12-03T09:06:15Z</time>
      </trkpt>
      <trkpt lat="43.54761" lon="6.29338">
        <ele>391.4</ele>
        <time>2017-12-03T09:06:23Z</time>
      </trkpt>
      <trkpt lat="43.5477" lon="6.29336">
        <ele>390.8</ele>
        <time>2017-12-03T09:06:33Z</time>
      </trkpt>
      <trkpt lat="43.54779" lon="6.29338">
        <ele>390.2</ele>
        <time>2017-12-03T09:06:41Z</time>
      </trkpt>
      <trkpt lat="43.54789" lon="6.29333">
        <ele>388.8</ele>
        <time>2017-12-03T09:06:53Z</time>
      </trkpt>
      <trkpt lat="43.54799" lon="6.29334">
        <ele>385.4</ele>
        <time>2017-12-03T09:07:24Z</time>
      </trkpt>
      <trkpt lat="43.54808" lon="6.29336">
        <ele>383.8</ele>
        <time>2017-12-03T09:07:35Z</time>
      </trkpt>
      <trkpt lat="43.54817" lon="6.29334">
        <ele>382.6</ele>
        <time>2017-12-03T09:07:43Z</time>
      </trkpt>
      <trkpt lat="43.54823" lon="6.29323">
        <ele>380.9</ele>
        <time>2017-12-03T09:07:52Z</time>
      </trkpt>
      <trkpt lat="43.54825" lon="6.2931">
        <ele>379.3</ele>
        <time>2017-12-03T09:08:02Z</time>
      </trkpt>
      <trkpt lat="43.5483" lon="6.293">
        <ele>377.8</ele>
        <time>2017-12-03T09:08:14Z</time>
      </trkpt>
      <trkpt lat="43.54827" lon="6.29288">
        <ele>376.6</ele>
        <time>2017-12-03T09:08:22Z</time>
      </trkpt>
      <trkpt lat="43.5482" lon="6.29279">
        <ele>375.2</ele>
        <time>2017-12-03T09:08:32Z</time>
      </trkpt>
      <trkpt lat="43.54815" lon="6.29269">
        <ele>374</ele>
        <time>2017-12-03T09:08:41Z</time>
      </trkpt>
      <trkpt lat="43.54808" lon="6.2926">
        <ele>372.8</ele>
        <time>2017-12-03T09:08:51Z</time>
      </trkpt>
      <trkpt lat="43.54811" lon="6.29248">
        <ele>369.4</ele>
        <time>2017-12-03T09:09:39Z</time>
      </trkpt>
      <trkpt lat="43.54809" lon="6.29236">
        <ele>368.5</ele>
        <time>2017-12-03T09:09:48Z</time>
      </trkpt>
      <trkpt lat="43.54811" lon="6.29222">
        <ele>367</ele>
        <time>2017-12-03T09:09:58Z</time>
      </trkpt>
      <trkpt lat="43.54817" lon="6.29212">
        <ele>365.8</ele>
        <time>2017-12-03T09:10:07Z</time>
      </trkpt>
      <trkpt lat="43.54818" lon="6.29198">
        <ele>364.6</ele>
        <time>2017-12-03T09:10:18Z</time>
      </trkpt>
      <trkpt lat="43.54814" lon="6.29185">
        <ele>363.6</ele>
        <time>2017-12-03T09:10:28Z</time>
      </trkpt>
      <trkpt lat="43.54815" lon="6.29173">
        <ele>362.4</ele>
        <time>2017-12-03T09:10:40Z</time>
      </trkpt>
      <trkpt lat="43.54819" lon="6.29161">
        <ele>361.3</ele>
        <time>2017-12-03T09:10:54Z</time>
      </trkpt>
      <trkpt lat="43.54828" lon="6.29157">
        <ele>359.9</ele>
        <time>2017-12-03T09:11:08Z</time>
      </trkpt>
      <trkpt lat="43.54836" lon="6.29153">
        <ele>358.7</ele>
        <time>2017-12-03T09:11:25Z</time>
      </trkpt>
      <trkpt lat="43.54845" lon="6.2915">
        <ele>357.9</ele>
        <time>2017-12-03T09:11:36Z</time>
      </trkpt>
      <trkpt lat="43.54855" lon="6.29148">
        <ele>357.2</ele>
        <time>2017-12-03T09:11:51Z</time>
      </trkpt>
      <trkpt lat="43.54864" lon="6.29143">
        <ele>356.7</ele>
        <time>2017-12-03T09:12:01Z</time>
      </trkpt>
      <trkpt lat="43.54874" lon="6.29141">
        <ele>356.4</ele>
        <time>2017-12-03T09:12:12Z</time>
      </trkpt>
      <trkpt lat="43.54883" lon="6.2914">
        <ele>356</ele>
        <time>2017-12-03T09:12:23Z</time>
      </trkpt>
      <trkpt lat="43.54892" lon="6.29141">
        <ele>355.1</ele>
        <time>2017-12-03T09:12:37Z</time>
      </trkpt>
      <trkpt lat="43.549" lon="6.29133">
        <ele>354.9</ele>
        <time>2017-12-03T09:12:44Z</time>
      </trkpt>
      <trkpt lat="43.54907" lon="6.29126">
        <ele>354.6</ele>
        <time>2017-12-03T09:12:54Z</time>
      </trkpt>
      <trkpt lat="43.54915" lon="6.2912">
        <ele>354.5</ele>
        <time>2017-12-03T09:13:04Z</time>
      </trkpt>
      <trkpt lat="43.54924" lon="6.29116">
        <ele>353.7</ele>
        <time>2017-12-03T09:13:18Z</time>
      </trkpt>
      <trkpt lat="43.54932" lon="6.2911">
        <ele>353.3</ele>
        <time>2017-12-03T09:13:25Z</time>
      </trkpt>
      <trkpt lat="43.54942" lon="6.29109">
        <ele>352.5</ele>
        <time>2017-12-03T09:13:35Z</time>
      </trkpt>
      <trkpt lat="43.54951" lon="6.29107">
        <ele>351.8</ele>
        <time>2017-12-03T09:13:46Z</time>
      </trkpt>
      <trkpt lat="43.5496" lon="6.29104">
        <ele>351.1</ele>
        <time>2017-12-03T09:13:55Z</time>
      </trkpt>
      <trkpt lat="43.54971" lon="6.29103">
        <ele>350.2</ele>
        <time>2017-12-03T09:14:04Z</time>
      </trkpt>
      <trkpt lat="43.5498" lon="6.29104">
        <ele>349.1</ele>
        <time>2017-12-03T09:14:14Z</time>
      </trkpt>
      <trkpt lat="43.54989" lon="6.29102">
        <ele>347.7</ele>
        <time>2017-12-03T09:14:24Z</time>
      </trkpt>
      <trkpt lat="43.54998" lon="6.29096">
        <ele>346.3</ele>
        <time>2017-12-03T09:14:35Z</time>
      </trkpt>
      <trkpt lat="43.55007" lon="6.29095">
        <ele>344.4</ele>
        <time>2017-12-03T09:14:48Z</time>
      </trkpt>
      <trkpt lat="43.55016" lon="6.29096">
        <ele>342.7</ele>
        <time>2017-12-03T09:15:00Z</time>
      </trkpt>
      <trkpt lat="43.55024" lon="6.2909">
        <ele>341.7</ele>
        <time>2017-12-03T09:15:07Z</time>
      </trkpt>
      <trkpt lat="43.55033" lon="6.29086">
        <ele>340.5</ele>
        <time>2017-12-03T09:15:17Z</time>
      </trkpt>
      <trkpt lat="43.55042" lon="6.29079">
        <ele>339.1</ele>
        <time>2017-12-03T09:15:28Z</time>
      </trkpt>
      <trkpt lat="43.55049" lon="6.29072">
        <ele>338.2</ele>
        <time>2017-12-03T09:15:36Z</time>
      </trkpt>
      <trkpt lat="43.55058" lon="6.29067">
        <ele>336.7</ele>
        <time>2017-12-03T09:15:48Z</time>
      </trkpt>
      <trkpt lat="43.55066" lon="6.2906">
        <ele>335.9</ele>
        <time>2017-12-03T09:15:57Z</time>
      </trkpt>
      <trkpt lat="43.55072" lon="6.29051">
        <ele>334.7</ele>
        <time>2017-12-03T09:16:08Z</time>
      </trkpt>
      <trkpt lat="43.5508" lon="6.29044">
        <ele>333.9</ele>
        <time>2017-12-03T09:16:21Z</time>
      </trkpt>
      <trkpt lat="43.55085" lon="6.29033">
        <ele>333.4</ele>
        <time>2017-12-03T09:16:36Z</time>
      </trkpt>
      <trkpt lat="43.55094" lon="6.29028">
        <ele>332</ele>
        <time>2017-12-03T09:16:50Z</time>
      </trkpt>
      <trkpt lat="43.55102" lon="6.29021">
        <ele>331</ele>
        <time>2017-12-03T09:17:00Z</time>
      </trkpt>
      <trkpt lat="43.55112" lon="6.29018">
        <ele>330.3</ele>
        <time>2017-12-03T09:17:08Z</time>
      </trkpt>
      <trkpt lat="43.55121" lon="6.29012">
        <ele>329.7</ele>
        <time>2017-12-03T09:17:15Z</time>
      </trkpt>
      <trkpt lat="43.55131" lon="6.29007">
        <ele>329.1</ele>
        <time>2017-12-03T09:17:21Z</time>
      </trkpt>
      <trkpt lat="43.5514" lon="6.29003">
        <ele>328.5</ele>
        <time>2017-12-03T09:17:30Z</time>
      </trkpt>
      <trkpt lat="43.55149" lon="6.28998">
        <ele>326.6</ele>
        <time>2017-12-03T09:17:45Z</time>
      </trkpt>
      <trkpt lat="43.55158" lon="6.28998">
        <ele>325.3</ele>
        <time>2017-12-03T09:17:54Z</time>
      </trkpt>
      <trkpt lat="43.55167" lon="6.28995">
        <ele>323.7</ele>
        <time>2017-12-03T09:18:04Z</time>
      </trkpt>
      <trkpt lat="43.55176" lon="6.28992">
        <ele>322.1</ele>
        <time>2017-12-03T09:18:15Z</time>
      </trkpt>
      <trkpt lat="43.55186" lon="6.2899">
        <ele>320.5</ele>
        <time>2017-12-03T09:18:27Z</time>
      </trkpt>
      <trkpt lat="43.55195" lon="6.28991">
        <ele>319.7</ele>
        <time>2017-12-03T09:18:34Z</time>
      </trkpt>
      <trkpt lat="43.55201" lon="6.29002">
        <ele>317.9</ele>
        <time>2017-12-03T09:18:58Z</time>
      </trkpt>
      <trkpt lat="43.5521" lon="6.29007">
        <ele>316.8</ele>
        <time>2017-12-03T09:19:23Z</time>
      </trkpt>
      <trkpt lat="43.55217" lon="6.29015">
        <ele>315.2</ele>
        <time>2017-12-03T09:19:37Z</time>
      </trkpt>
      <trkpt lat="43.55226" lon="6.29019">
        <ele>313.4</ele>
        <time>2017-12-03T09:19:49Z</time>
      </trkpt>
      <trkpt lat="43.55234" lon="6.29026">
        <ele>312</ele>
        <time>2017-12-03T09:19:58Z</time>
      </trkpt>
      <trkpt lat="43.55243" lon="6.2902">
        <ele>310.9</ele>
        <time>2017-12-03T09:20:06Z</time>
      </trkpt>
      <trkpt lat="43.55252" lon="6.29012">
        <ele>309.7</ele>
        <time>2017-12-03T09:20:14Z</time>
      </trkpt>
      <trkpt lat="43.55259" lon="6.29005">
        <ele>308.3</ele>
        <time>2017-12-03T09:20:23Z</time>
      </trkpt>
      <trkpt lat="43.55266" lon="6.28996">
        <ele>307</ele>
        <time>2017-12-03T09:20:31Z</time>
      </trkpt>
      <trkpt lat="43.55269" lon="6.28983">
        <ele>304.9</ele>
        <time>2017-12-03T09:20:43Z</time>
      </trkpt>
      <trkpt lat="43.5527" lon="6.28971">
        <ele>300.3</ele>
        <time>2017-12-03T09:21:30Z</time>
      </trkpt>
      <trkpt lat="43.5528" lon="6.2897">
        <ele>301.1</ele>
        <time>2017-12-03T09:22:27Z</time>
      </trkpt>
      <trkpt lat="43.55271" lon="6.28977">
        <ele>301.1</ele>
        <time>2017-12-03T09:22:53Z</time>
      </trkpt>
      <trkpt lat="43.55265" lon="6.28967">
        <ele>300.7</ele>
        <time>2017-12-03T09:24:17Z</time>
      </trkpt>
      <trkpt lat="43.55264" lon="6.28954">
        <ele>300.6</ele>
        <time>2017-12-03T09:24:58Z</time>
      </trkpt>
      <trkpt lat="43.55255" lon="6.28952">
        <ele>301.9</ele>
        <time>2017-12-03T09:25:19Z</time>
      </trkpt>
      <trkpt lat="43.55246" lon="6.28949">
        <ele>302.6</ele>
        <time>2017-12-03T09:25:29Z</time>
      </trkpt>
      <trkpt lat="43.55237" lon="6.28941">
        <ele>303.4</ele>
        <time>2017-12-03T09:25:37Z</time>
      </trkpt>
      <trkpt lat="43.55228" lon="6.28937">
        <ele>304.4</ele>
        <time>2017-12-03T09:25:47Z</time>
      </trkpt>
      <trkpt lat="43.55222" lon="6.28928">
        <ele>306.3</ele>
        <time>2017-12-03T09:26:03Z</time>
      </trkpt>
      <trkpt lat="43.5522" lon="6.28915">
        <ele>307.7</ele>
        <time>2017-12-03T09:26:15Z</time>
      </trkpt>
      <trkpt lat="43.55225" lon="6.28903">
        <ele>308.9</ele>
        <time>2017-12-03T09:26:28Z</time>
      </trkpt>
      <trkpt lat="43.55225" lon="6.2889">
        <ele>309.7</ele>
        <time>2017-12-03T09:26:40Z</time>
      </trkpt>
      <trkpt lat="43.55226" lon="6.28878">
        <ele>310</ele>
        <time>2017-12-03T09:26:48Z</time>
      </trkpt>
      <trkpt lat="43.55227" lon="6.28865">
        <ele>310.4</ele>
        <time>2017-12-03T09:26:58Z</time>
      </trkpt>
      <trkpt lat="43.55226" lon="6.28852">
        <ele>311</ele>
        <time>2017-12-03T09:27:07Z</time>
      </trkpt>
      <trkpt lat="43.55223" lon="6.2884">
        <ele>311.5</ele>
        <time>2017-12-03T09:27:13Z</time>
      </trkpt>
      <trkpt lat="43.55216" lon="6.28832">
        <ele>313.1</ele>
        <time>2017-12-03T09:27:38Z</time>
      </trkpt>
      <trkpt lat="43.5521" lon="6.28822">
        <ele>314.2</ele>
        <time>2017-12-03T09:27:53Z</time>
      </trkpt>
      <trkpt lat="43.55211" lon="6.2881">
        <ele>315.1</ele>
        <time>2017-12-03T09:28:04Z</time>
      </trkpt>
      <trkpt lat="43.55211" lon="6.28797">
        <ele>316.1</ele>
        <time>2017-12-03T09:28:13Z</time>
      </trkpt>
      <trkpt lat="43.55209" lon="6.28784">
        <ele>317</ele>
        <time>2017-12-03T09:28:22Z</time>
      </trkpt>
      <trkpt lat="43.55208" lon="6.28771">
        <ele>318.2</ele>
        <time>2017-12-03T09:28:35Z</time>
      </trkpt>
      <trkpt lat="43.55202" lon="6.28761">
        <ele>318.9</ele>
        <time>2017-12-03T09:28:45Z</time>
      </trkpt>
      <trkpt lat="43.55204" lon="6.28748">
        <ele>319.9</ele>
        <time>2017-12-03T09:28:57Z</time>
      </trkpt>
      <trkpt lat="43.55207" lon="6.28736">
        <ele>321.1</ele>
        <time>2017-12-03T09:29:08Z</time>
      </trkpt>
      <trkpt lat="43.5521" lon="6.28724">
        <ele>322.1</ele>
        <time>2017-12-03T09:29:16Z</time>
      </trkpt>
      <trkpt lat="43.55215" lon="6.28713">
        <ele>323.3</ele>
        <time>2017-12-03T09:29:28Z</time>
      </trkpt>
      <trkpt lat="43.55218" lon="6.28701">
        <ele>325.2</ele>
        <time>2017-12-03T09:29:44Z</time>
      </trkpt>
      <trkpt lat="43.55221" lon="6.28689">
        <ele>326.2</ele>
        <time>2017-12-03T09:29:54Z</time>
      </trkpt>
      <trkpt lat="43.55224" lon="6.28676">
        <ele>327</ele>
        <time>2017-12-03T09:30:02Z</time>
      </trkpt>
      <trkpt lat="43.55229" lon="6.28665">
        <ele>327.8</ele>
        <time>2017-12-03T09:30:10Z</time>
      </trkpt>
      <trkpt lat="43.55229" lon="6.28652">
        <ele>328.7</ele>
        <time>2017-12-03T09:30:21Z</time>
      </trkpt>
      <trkpt lat="43.5523" lon="6.28638">
        <ele>329.3</ele>
        <time>2017-12-03T09:30:32Z</time>
      </trkpt>
      <trkpt lat="43.55231" lon="6.28625">
        <ele>329.6</ele>
        <time>2017-12-03T09:30:42Z</time>
      </trkpt>
      <trkpt lat="43.55232" lon="6.28613">
        <ele>329.9</ele>
        <time>2017-12-03T09:30:52Z</time>
      </trkpt>
      <trkpt lat="43.55238" lon="6.28602">
        <ele>330.4</ele>
        <time>2017-12-03T09:31:01Z</time>
      </trkpt>
      <trkpt lat="43.55239" lon="6.28589">
        <ele>331</ele>
        <time>2017-12-03T09:31:10Z</time>
      </trkpt>
      <trkpt lat="43.5524" lon="6.28577">
        <ele>332</ele>
        <time>2017-12-03T09:31:23Z</time>
      </trkpt>
      <trkpt lat="43.55245" lon="6.28565">
        <ele>333</ele>
        <time>2017-12-03T09:31:32Z</time>
      </trkpt>
      <trkpt lat="43.55245" lon="6.28552">
        <ele>333.9</ele>
        <time>2017-12-03T09:31:41Z</time>
      </trkpt>
      <trkpt lat="43.55248" lon="6.28539">
        <ele>334.6</ele>
        <time>2017-12-03T09:31:50Z</time>
      </trkpt>
      <trkpt lat="43.55248" lon="6.28527">
        <ele>335</ele>
        <time>2017-12-03T09:32:03Z</time>
      </trkpt>
      <trkpt lat="43.55255" lon="6.28518">
        <ele>336.5</ele>
        <time>2017-12-03T09:32:12Z</time>
      </trkpt>
      <trkpt lat="43.55258" lon="6.28506">
        <ele>337.8</ele>
        <time>2017-12-03T09:32:24Z</time>
      </trkpt>
      <trkpt lat="43.55256" lon="6.28492">
        <ele>338.9</ele>
        <time>2017-12-03T09:32:35Z</time>
      </trkpt>
      <trkpt lat="43.55258" lon="6.2848">
        <ele>340.1</ele>
        <time>2017-12-03T09:32:46Z</time>
      </trkpt>
      <trkpt lat="43.55262" lon="6.28468">
        <ele>340.9</ele>
        <time>2017-12-03T09:32:57Z</time>
      </trkpt>
      <trkpt lat="43.55264" lon="6.28456">
        <ele>341.3</ele>
        <time>2017-12-03T09:33:06Z</time>
      </trkpt>
      <trkpt lat="43.55259" lon="6.28444">
        <ele>342.2</ele>
        <time>2017-12-03T09:33:19Z</time>
      </trkpt>
      <trkpt lat="43.55251" lon="6.28437">
        <ele>343</ele>
        <time>2017-12-03T09:33:26Z</time>
      </trkpt>
      <trkpt lat="43.55247" lon="6.28425">
        <ele>344.1</ele>
        <time>2017-12-03T09:33:40Z</time>
      </trkpt>
      <trkpt lat="43.55241" lon="6.28415">
        <ele>344.8</ele>
        <time>2017-12-03T09:33:52Z</time>
      </trkpt>
      <trkpt lat="43.55237" lon="6.28404">
        <ele>346.1</ele>
        <time>2017-12-03T09:34:08Z</time>
      </trkpt>
      <trkpt lat="43.55232" lon="6.28393">
        <ele>347.2</ele>
        <time>2017-12-03T09:34:22Z</time>
      </trkpt>
      <trkpt lat="43.55226" lon="6.28382">
        <ele>348.3</ele>
        <time>2017-12-03T09:34:36Z</time>
      </trkpt>
      <trkpt lat="43.5522" lon="6.28372">
        <ele>349.3</ele>
        <time>2017-12-03T09:34:45Z</time>
      </trkpt>
      <trkpt lat="43.55213" lon="6.28364">
        <ele>350</ele>
        <time>2017-12-03T09:34:53Z</time>
      </trkpt>
      <trkpt lat="43.55205" lon="6.28358">
        <ele>350.7</ele>
        <time>2017-12-03T09:35:02Z</time>
      </trkpt>
      <trkpt lat="43.55196" lon="6.28353">
        <ele>351.1</ele>
        <time>2017-12-03T09:35:10Z</time>
      </trkpt>
      <trkpt lat="43.55188" lon="6.28346">
        <ele>351.7</ele>
        <time>2017-12-03T09:35:18Z</time>
      </trkpt>
      <trkpt lat="43.5518" lon="6.28342">
        <ele>352.3</ele>
        <time>2017-12-03T09:35:29Z</time>
      </trkpt>
      <trkpt lat="43.55172" lon="6.28333">
        <ele>353.6</ele>
        <time>2017-12-03T09:35:45Z</time>
      </trkpt>
      <trkpt lat="43.55164" lon="6.28328">
        <ele>354.8</ele>
        <time>2017-12-03T09:35:59Z</time>
      </trkpt>
      <trkpt lat="43.55159" lon="6.28317">
        <ele>356.3</ele>
        <time>2017-12-03T09:36:13Z</time>
      </trkpt>
      <trkpt lat="43.55157" lon="6.28305">
        <ele>357.3</ele>
        <time>2017-12-03T09:36:26Z</time>
      </trkpt>
      <trkpt lat="43.55153" lon="6.28293">
        <ele>358.3</ele>
        <time>2017-12-03T09:36:40Z</time>
      </trkpt>
      <trkpt lat="43.55152" lon="6.2828">
        <ele>359.5</ele>
        <time>2017-12-03T09:36:55Z</time>
      </trkpt>
      <trkpt lat="43.55151" lon="6.28267">
        <ele>360.7</ele>
        <time>2017-12-03T09:37:08Z</time>
      </trkpt>
      <trkpt lat="43.55152" lon="6.28253">
        <ele>361.9</ele>
        <time>2017-12-03T09:37:26Z</time>
      </trkpt>
      <trkpt lat="43.55153" lon="6.28241">
        <ele>362.6</ele>
        <time>2017-12-03T09:37:36Z</time>
      </trkpt>
      <trkpt lat="43.55149" lon="6.28228">
        <ele>363.8</ele>
        <time>2017-12-03T09:37:57Z</time>
      </trkpt>
      <trkpt lat="43.55149" lon="6.28215">
        <ele>364.5</ele>
        <time>2017-12-03T09:38:06Z</time>
      </trkpt>
      <trkpt lat="43.5515" lon="6.28202">
        <ele>365.3</ele>
        <time>2017-12-03T09:38:19Z</time>
      </trkpt>
      <trkpt lat="43.55151" lon="6.2819">
        <ele>365.9</ele>
        <time>2017-12-03T09:38:28Z</time>
      </trkpt>
      <trkpt lat="43.55154" lon="6.28178">
        <ele>367</ele>
        <time>2017-12-03T09:38:40Z</time>
      </trkpt>
      <trkpt lat="43.55155" lon="6.28164">
        <ele>367.4</ele>
        <time>2017-12-03T09:38:50Z</time>
      </trkpt>
      <trkpt lat="43.55157" lon="6.28152">
        <ele>368.5</ele>
        <time>2017-12-03T09:39:03Z</time>
      </trkpt>
      <trkpt lat="43.55157" lon="6.28139">
        <ele>369.1</ele>
        <time>2017-12-03T09:39:14Z</time>
      </trkpt>
      <trkpt lat="43.55154" lon="6.28126">
        <ele>370.1</ele>
        <time>2017-12-03T09:39:27Z</time>
      </trkpt>
      <trkpt lat="43.55155" lon="6.28113">
        <ele>370.9</ele>
        <time>2017-12-03T09:39:35Z</time>
      </trkpt>
      <trkpt lat="43.55153" lon="6.28101">
        <ele>371.9</ele>
        <time>2017-12-03T09:39:50Z</time>
      </trkpt>
      <trkpt lat="43.55149" lon="6.28089">
        <ele>372.7</ele>
        <time>2017-12-03T09:40:02Z</time>
      </trkpt>
      <trkpt lat="43.55145" lon="6.28078">
        <ele>373.3</ele>
        <time>2017-12-03T09:40:11Z</time>
      </trkpt>
      <trkpt lat="43.55142" lon="6.28065">
        <ele>374.5</ele>
        <time>2017-12-03T09:40:25Z</time>
      </trkpt>
      <trkpt lat="43.5514" lon="6.28053">
        <ele>375.7</ele>
        <time>2017-12-03T09:40:38Z</time>
      </trkpt>
      <trkpt lat="43.55137" lon="6.28042">
        <ele>376.7</ele>
        <time>2017-12-03T09:40:52Z</time>
      </trkpt>
      <trkpt lat="43.5513" lon="6.28033">
        <ele>378</ele>
        <time>2017-12-03T09:41:04Z</time>
      </trkpt>
      <trkpt lat="43.55128" lon="6.2802">
        <ele>379.1</ele>
        <time>2017-12-03T09:41:16Z</time>
      </trkpt>
      <trkpt lat="43.55124" lon="6.28008">
        <ele>379.9</ele>
        <time>2017-12-03T09:41:27Z</time>
      </trkpt>
      <trkpt lat="43.55125" lon="6.27994">
        <ele>381</ele>
        <time>2017-12-03T09:41:41Z</time>
      </trkpt>
      <trkpt lat="43.55126" lon="6.27981">
        <ele>381.8</ele>
        <time>2017-12-03T09:41:52Z</time>
      </trkpt>
      <trkpt lat="43.55126" lon="6.27968">
        <ele>382.6</ele>
        <time>2017-12-03T09:42:04Z</time>
      </trkpt>
      <trkpt lat="43.55122" lon="6.27956">
        <ele>383.5</ele>
        <time>2017-12-03T09:42:17Z</time>
      </trkpt>
      <trkpt lat="43.55117" lon="6.27945">
        <ele>384.5</ele>
        <time>2017-12-03T09:42:28Z</time>
      </trkpt>
      <trkpt lat="43.55113" lon="6.27933">
        <ele>385.5</ele>
        <time>2017-12-03T09:42:42Z</time>
      </trkpt>
      <trkpt lat="43.5511" lon="6.2792">
        <ele>386</ele>
        <time>2017-12-03T09:42:50Z</time>
      </trkpt>
      <trkpt lat="43.55103" lon="6.27912">
        <ele>387.2</ele>
        <time>2017-12-03T09:43:16Z</time>
      </trkpt>
      <trkpt lat="43.55104" lon="6.27925">
        <ele>388.1</ele>
        <time>2017-12-03T09:46:08Z</time>
      </trkpt>
      <trkpt lat="43.55104" lon="6.27912">
        <ele>386.1</ele>
        <time>2017-12-03T09:48:19Z</time>
      </trkpt>
      <trkpt lat="43.551" lon="6.27901">
        <ele>386.3</ele>
        <time>2017-12-03T09:51:33Z</time>
      </trkpt>
      <trkpt lat="43.55099" lon="6.27888">
        <ele>386.4</ele>
        <time>2017-12-03T09:51:53Z</time>
      </trkpt>
      <trkpt lat="43.55101" lon="6.27875">
        <ele>385.8</ele>
        <time>2017-12-03T09:52:03Z</time>
      </trkpt>
      <trkpt lat="43.55105" lon="6.27864">
        <ele>385.3</ele>
        <time>2017-12-03T09:52:11Z</time>
      </trkpt>
      <trkpt lat="43.55109" lon="6.27851">
        <ele>384.4</ele>
        <time>2017-12-03T09:52:23Z</time>
      </trkpt>
      <trkpt lat="43.55111" lon="6.27838">
        <ele>384</ele>
        <time>2017-12-03T09:52:31Z</time>
      </trkpt>
      <trkpt lat="43.55113" lon="6.27825">
        <ele>383.4</ele>
        <time>2017-12-03T09:52:43Z</time>
      </trkpt>
      <trkpt lat="43.55113" lon="6.27811">
        <ele>382.8</ele>
        <time>2017-12-03T09:52:52Z</time>
      </trkpt>
      <trkpt lat="43.55114" lon="6.27798">
        <ele>382</ele>
        <time>2017-12-03T09:53:00Z</time>
      </trkpt>
      <trkpt lat="43.55115" lon="6.27785">
        <ele>381.4</ele>
        <time>2017-12-03T09:53:08Z</time>
      </trkpt>
      <trkpt lat="43.55114" lon="6.27772">
        <ele>380.9</ele>
        <time>2017-12-03T09:53:16Z</time>
      </trkpt>
      <trkpt lat="43.55111" lon="6.2776">
        <ele>380.5</ele>
        <time>2017-12-03T09:53:23Z</time>
      </trkpt>
      <trkpt lat="43.55107" lon="6.27748">
        <ele>380</ele>
        <time>2017-12-03T09:53:31Z</time>
      </trkpt>
      <trkpt lat="43.55103" lon="6.27736">
        <ele>379.6</ele>
        <time>2017-12-03T09:53:39Z</time>
      </trkpt>
      <trkpt lat="43.551" lon="6.27725">
        <ele>379.3</ele>
        <time>2017-12-03T09:53:45Z</time>
      </trkpt>
      <trkpt lat="43.55097" lon="6.27712">
        <ele>378.9</ele>
        <time>2017-12-03T09:53:54Z</time>
      </trkpt>
      <trkpt lat="43.55097" lon="6.27698">
        <ele>378.6</ele>
        <time>2017-12-03T09:54:02Z</time>
      </trkpt>
      <trkpt lat="43.55091" lon="6.27685">
        <ele>378.4</ele>
        <time>2017-12-03T09:54:08Z</time>
      </trkpt>
      <trkpt lat="43.55091" lon="6.27673">
        <ele>377.9</ele>
        <time>2017-12-03T09:54:16Z</time>
      </trkpt>
      <trkpt lat="43.5509" lon="6.27659">
        <ele>377.5</ele>
        <time>2017-12-03T09:54:25Z</time>
      </trkpt>
      <trkpt lat="43.55088" lon="6.27646">
        <ele>377.4</ele>
        <time>2017-12-03T09:54:34Z</time>
      </trkpt>
      <trkpt lat="43.55088" lon="6.27633">
        <ele>377.4</ele>
        <time>2017-12-03T09:54:42Z</time>
      </trkpt>
      <trkpt lat="43.5509" lon="6.2762">
        <ele>377.3</ele>
        <time>2017-12-03T09:54:51Z</time>
      </trkpt>
      <trkpt lat="43.55091" lon="6.27607">
        <ele>377</ele>
        <time>2017-12-03T09:54:59Z</time>
      </trkpt>
      <trkpt lat="43.5509" lon="6.27594">
        <ele>376.8</ele>
        <time>2017-12-03T09:55:06Z</time>
      </trkpt>
      <trkpt lat="43.55085" lon="6.27582">
        <ele>376.2</ele>
        <time>2017-12-03T09:55:14Z</time>
      </trkpt>
      <trkpt lat="43.55082" lon="6.27569">
        <ele>375.6</ele>
        <time>2017-12-03T09:55:23Z</time>
      </trkpt>
      <trkpt lat="43.55081" lon="6.27556">
        <ele>374.9</ele>
        <time>2017-12-03T09:55:30Z</time>
      </trkpt>
      <trkpt lat="43.55086" lon="6.27545">
        <ele>373.9</ele>
        <time>2017-12-03T09:55:39Z</time>
      </trkpt>
      <trkpt lat="43.55086" lon="6.27532">
        <ele>372.7</ele>
        <time>2017-12-03T09:55:47Z</time>
      </trkpt>
      <trkpt lat="43.55088" lon="6.27519">
        <ele>371.8</ele>
        <time>2017-12-03T09:55:56Z</time>
      </trkpt>
      <trkpt lat="43.55087" lon="6.27507">
        <ele>371.1</ele>
        <time>2017-12-03T09:56:05Z</time>
      </trkpt>
      <trkpt lat="43.55079" lon="6.27499">
        <ele>370.9</ele>
        <time>2017-12-03T09:56:14Z</time>
      </trkpt>
      <trkpt lat="43.5507" lon="6.27493">
        <ele>371.1</ele>
        <time>2017-12-03T09:56:22Z</time>
      </trkpt>
      <trkpt lat="43.55062" lon="6.27488">
        <ele>371.6</ele>
        <time>2017-12-03T09:56:32Z</time>
      </trkpt>
      <trkpt lat="43.55053" lon="6.27483">
        <ele>372</ele>
        <time>2017-12-03T09:56:41Z</time>
      </trkpt>
      <trkpt lat="43.55044" lon="6.27478">
        <ele>372.2</ele>
        <time>2017-12-03T09:56:50Z</time>
      </trkpt>
      <trkpt lat="43.55036" lon="6.27472">
        <ele>372.1</ele>
        <time>2017-12-03T09:56:58Z</time>
      </trkpt>
      <trkpt lat="43.55026" lon="6.27468">
        <ele>371.5</ele>
        <time>2017-12-03T09:57:08Z</time>
      </trkpt>
      <trkpt lat="43.55018" lon="6.27463">
        <ele>370.7</ele>
        <time>2017-12-03T09:57:19Z</time>
      </trkpt>
      <trkpt lat="43.55008" lon="6.27457">
        <ele>369.9</ele>
        <time>2017-12-03T09:57:28Z</time>
      </trkpt>
      <trkpt lat="43.55" lon="6.2745">
        <ele>369</ele>
        <time>2017-12-03T09:57:39Z</time>
      </trkpt>
      <trkpt lat="43.54991" lon="6.27445">
        <ele>368</ele>
        <time>2017-12-03T09:57:51Z</time>
      </trkpt>
      <trkpt lat="43.54983" lon="6.27439">
        <ele>367.3</ele>
        <time>2017-12-03T09:58:02Z</time>
      </trkpt>
      <trkpt lat="43.54975" lon="6.27433">
        <ele>367</ele>
        <time>2017-12-03T09:58:14Z</time>
      </trkpt>
      <trkpt lat="43.54967" lon="6.27429">
        <ele>366.7</ele>
        <time>2017-12-03T09:58:24Z</time>
      </trkpt>
      <trkpt lat="43.54958" lon="6.27424">
        <ele>366.1</ele>
        <time>2017-12-03T09:58:33Z</time>
      </trkpt>
      <trkpt lat="43.54949" lon="6.2742">
        <ele>364.9</ele>
        <time>2017-12-03T09:58:44Z</time>
      </trkpt>
      <trkpt lat="43.54942" lon="6.27412">
        <ele>363.7</ele>
        <time>2017-12-03T09:58:55Z</time>
      </trkpt>
      <trkpt lat="43.54934" lon="6.27403">
        <ele>362.6</ele>
        <time>2017-12-03T09:59:06Z</time>
      </trkpt>
      <trkpt lat="43.54927" lon="6.27396">
        <ele>361.8</ele>
        <time>2017-12-03T09:59:13Z</time>
      </trkpt>
      <trkpt lat="43.54919" lon="6.27389">
        <ele>360.3</ele>
        <time>2017-12-03T09:59:24Z</time>
      </trkpt>
      <trkpt lat="43.54912" lon="6.27381">
        <ele>359.1</ele>
        <time>2017-12-03T09:59:35Z</time>
      </trkpt>
      <trkpt lat="43.54906" lon="6.27371">
        <ele>358.2</ele>
        <time>2017-12-03T09:59:43Z</time>
      </trkpt>
      <trkpt lat="43.549" lon="6.27362">
        <ele>357.1</ele>
        <time>2017-12-03T09:59:52Z</time>
      </trkpt>
      <trkpt lat="43.54895" lon="6.27351">
        <ele>355</ele>
        <time>2017-12-03T10:00:19Z</time>
      </trkpt>
      <trkpt lat="43.54885" lon="6.27348">
        <ele>354.2</ele>
        <time>2017-12-03T10:00:57Z</time>
      </trkpt>
      <trkpt lat="43.54877" lon="6.27341">
        <ele>353.9</ele>
        <time>2017-12-03T10:01:09Z</time>
      </trkpt>
      <trkpt lat="43.54869" lon="6.27334">
        <ele>353.3</ele>
        <time>2017-12-03T10:01:20Z</time>
      </trkpt>
      <trkpt lat="43.54861" lon="6.27326">
        <ele>352.7</ele>
        <time>2017-12-03T10:01:28Z</time>
      </trkpt>
      <trkpt lat="43.54853" lon="6.27319">
        <ele>351.8</ele>
        <time>2017-12-03T10:01:37Z</time>
      </trkpt>
      <trkpt lat="43.54844" lon="6.27311">
        <ele>350.7</ele>
        <time>2017-12-03T10:01:46Z</time>
      </trkpt>
      <trkpt lat="43.54837" lon="6.27301">
        <ele>349.7</ele>
        <time>2017-12-03T10:01:53Z</time>
      </trkpt>
      <trkpt lat="43.54829" lon="6.27294">
        <ele>348.8</ele>
        <time>2017-12-03T10:02:00Z</time>
      </trkpt>
      <trkpt lat="43.54821" lon="6.27287">
        <ele>347.5</ele>
        <time>2017-12-03T10:02:14Z</time>
      </trkpt>
      <trkpt lat="43.54811" lon="6.27289">
        <ele>345.9</ele>
        <time>2017-12-03T10:02:57Z</time>
      </trkpt>
      <trkpt lat="43.54804" lon="6.27282">
        <ele>345.4</ele>
        <time>2017-12-03T10:03:06Z</time>
      </trkpt>
      <trkpt lat="43.54798" lon="6.27272">
        <ele>344.6</ele>
        <time>2017-12-03T10:03:18Z</time>
      </trkpt>
      <trkpt lat="43.54792" lon="6.27262">
        <ele>344.2</ele>
        <time>2017-12-03T10:03:30Z</time>
      </trkpt>
      <trkpt lat="43.54786" lon="6.27252">
        <ele>343.5</ele>
        <time>2017-12-03T10:03:58Z</time>
      </trkpt>
      <trkpt lat="43.54788" lon="6.27239">
        <ele>343.3</ele>
        <time>2017-12-03T10:04:17Z</time>
      </trkpt>
      <trkpt lat="43.54791" lon="6.27227">
        <ele>343</ele>
        <time>2017-12-03T10:04:30Z</time>
      </trkpt>
      <trkpt lat="43.5479" lon="6.27214">
        <ele>342.6</ele>
        <time>2017-12-03T10:04:41Z</time>
      </trkpt>
      <trkpt lat="43.54787" lon="6.27201">
        <ele>342.5</ele>
        <time>2017-12-03T10:04:52Z</time>
      </trkpt>
      <trkpt lat="43.54785" lon="6.27189">
        <ele>342.4</ele>
        <time>2017-12-03T10:05:02Z</time>
      </trkpt>
      <trkpt lat="43.54781" lon="6.27177">
        <ele>342.4</ele>
        <time>2017-12-03T10:05:13Z</time>
      </trkpt>
      <trkpt lat="43.54777" lon="6.27166">
        <ele>342.4</ele>
        <time>2017-12-03T10:05:22Z</time>
      </trkpt>
      <trkpt lat="43.54769" lon="6.27158">
        <ele>342.4</ele>
        <time>2017-12-03T10:05:30Z</time>
      </trkpt>
      <trkpt lat="43.54761" lon="6.2715">
        <ele>342.4</ele>
        <time>2017-12-03T10:05:38Z</time>
      </trkpt>
      <trkpt lat="43.54753" lon="6.27141">
        <ele>342.4</ele>
        <time>2017-12-03T10:05:46Z</time>
      </trkpt>
      <trkpt lat="43.54745" lon="6.27133">
        <ele>342.3</ele>
        <time>2017-12-03T10:05:55Z</time>
      </trkpt>
      <trkpt lat="43.54739" lon="6.27123">
        <ele>342.1</ele>
        <time>2017-12-03T10:06:11Z</time>
      </trkpt>
      <trkpt lat="43.54731" lon="6.27115">
        <ele>342.1</ele>
        <time>2017-12-03T10:06:17Z</time>
      </trkpt>
      <trkpt lat="43.54723" lon="6.27108">
        <ele>342</ele>
        <time>2017-12-03T10:06:24Z</time>
      </trkpt>
      <trkpt lat="43.54715" lon="6.27101">
        <ele>342</ele>
        <time>2017-12-03T10:06:32Z</time>
      </trkpt>
      <trkpt lat="43.54709" lon="6.27092">
        <ele>341.9</ele>
        <time>2017-12-03T10:06:43Z</time>
      </trkpt>
      <trkpt lat="43.54705" lon="6.27081">
        <ele>341.9</ele>
        <time>2017-12-03T10:06:51Z</time>
      </trkpt>
      <trkpt lat="43.54697" lon="6.27074">
        <ele>341.8</ele>
        <time>2017-12-03T10:06:59Z</time>
      </trkpt>
      <trkpt lat="43.54693" lon="6.27062">
        <ele>341.8</ele>
        <time>2017-12-03T10:07:07Z</time>
      </trkpt>
      <trkpt lat="43.54692" lon="6.2705">
        <ele>341.6</ele>
        <time>2017-12-03T10:07:25Z</time>
      </trkpt>
      <trkpt lat="43.54684" lon="6.27041">
        <ele>341.4</ele>
        <time>2017-12-03T10:07:34Z</time>
      </trkpt>
      <trkpt lat="43.54678" lon="6.27031">
        <ele>341.4</ele>
        <time>2017-12-03T10:07:41Z</time>
      </trkpt>
      <trkpt lat="43.5467" lon="6.27023">
        <ele>341.3</ele>
        <time>2017-12-03T10:07:49Z</time>
      </trkpt>
      <trkpt lat="43.54662" lon="6.27016">
        <ele>341.4</ele>
        <time>2017-12-03T10:07:57Z</time>
      </trkpt>
      <trkpt lat="43.54655" lon="6.27006">
        <ele>341.5</ele>
        <time>2017-12-03T10:08:04Z</time>
      </trkpt>
      <trkpt lat="43.54651" lon="6.26993">
        <ele>342</ele>
        <time>2017-12-03T10:08:15Z</time>
      </trkpt>
      <trkpt lat="43.54646" lon="6.26982">
        <ele>342.2</ele>
        <time>2017-12-03T10:08:23Z</time>
      </trkpt>
      <trkpt lat="43.54639" lon="6.26973">
        <ele>342.8</ele>
        <time>2017-12-03T10:08:34Z</time>
      </trkpt>
      <trkpt lat="43.5463" lon="6.26968">
        <ele>343.1</ele>
        <time>2017-12-03T10:08:42Z</time>
      </trkpt>
      <trkpt lat="43.54622" lon="6.26962">
        <ele>343.4</ele>
        <time>2017-12-03T10:08:49Z</time>
      </trkpt>
      <trkpt lat="43.54616" lon="6.26952">
        <ele>343.7</ele>
        <time>2017-12-03T10:08:59Z</time>
      </trkpt>
      <trkpt lat="43.54614" lon="6.26938">
        <ele>344.5</ele>
        <time>2017-12-03T10:09:12Z</time>
      </trkpt>
      <trkpt lat="43.54615" lon="6.26926">
        <ele>345.5</ele>
        <time>2017-12-03T10:09:24Z</time>
      </trkpt>
      <trkpt lat="43.54618" lon="6.26913">
        <ele>346.7</ele>
        <time>2017-12-03T10:09:35Z</time>
      </trkpt>
      <trkpt lat="43.54614" lon="6.26901">
        <ele>347.8</ele>
        <time>2017-12-03T10:09:48Z</time>
      </trkpt>
      <trkpt lat="43.54608" lon="6.26891">
        <ele>348.8</ele>
        <time>2017-12-03T10:09:59Z</time>
      </trkpt>
      <trkpt lat="43.54603" lon="6.2688">
        <ele>350</ele>
        <time>2017-12-03T10:10:13Z</time>
      </trkpt>
      <trkpt lat="43.54598" lon="6.2687">
        <ele>351.2</ele>
        <time>2017-12-03T10:10:25Z</time>
      </trkpt>
      <trkpt lat="43.54593" lon="6.26858">
        <ele>352.4</ele>
        <time>2017-12-03T10:10:38Z</time>
      </trkpt>
      <trkpt lat="43.54592" lon="6.26845">
        <ele>353.8</ele>
        <time>2017-12-03T10:10:53Z</time>
      </trkpt>
      <trkpt lat="43.54589" lon="6.26833">
        <ele>355</ele>
        <time>2017-12-03T10:11:05Z</time>
      </trkpt>
      <trkpt lat="43.54583" lon="6.26823">
        <ele>356.3</ele>
        <time>2017-12-03T10:11:19Z</time>
      </trkpt>
      <trkpt lat="43.54579" lon="6.26811">
        <ele>357.5</ele>
        <time>2017-12-03T10:11:33Z</time>
      </trkpt>
      <trkpt lat="43.5457" lon="6.26805">
        <ele>358.6</ele>
        <time>2017-12-03T10:11:47Z</time>
      </trkpt>
      <trkpt lat="43.54561" lon="6.26802">
        <ele>359.3</ele>
        <time>2017-12-03T10:12:01Z</time>
      </trkpt>
      <trkpt lat="43.54558" lon="6.26791">
        <ele>361</ele>
        <time>2017-12-03T10:12:41Z</time>
      </trkpt>
      <trkpt lat="43.54548" lon="6.26788">
        <ele>361.2</ele>
        <time>2017-12-03T10:12:55Z</time>
      </trkpt>
      <trkpt lat="43.54539" lon="6.26784">
        <ele>361.7</ele>
        <time>2017-12-03T10:13:05Z</time>
      </trkpt>
      <trkpt lat="43.5453" lon="6.2678">
        <ele>362</ele>
        <time>2017-12-03T10:13:14Z</time>
      </trkpt>
      <trkpt lat="43.54521" lon="6.26779">
        <ele>362.3</ele>
        <time>2017-12-03T10:13:21Z</time>
      </trkpt>
      <trkpt lat="43.54513" lon="6.26773">
        <ele>362.7</ele>
        <time>2017-12-03T10:13:29Z</time>
      </trkpt>
      <trkpt lat="43.54505" lon="6.26767">
        <ele>363</ele>
        <time>2017-12-03T10:13:38Z</time>
      </trkpt>
      <trkpt lat="43.54495" lon="6.26762">
        <ele>363.5</ele>
        <time>2017-12-03T10:13:48Z</time>
      </trkpt>
      <trkpt lat="43.54488" lon="6.26754">
        <ele>363.8</ele>
        <time>2017-12-03T10:14:03Z</time>
      </trkpt>
      <trkpt lat="43.5448" lon="6.26746">
        <ele>363.8</ele>
        <time>2017-12-03T10:14:10Z</time>
      </trkpt>
      <trkpt lat="43.54472" lon="6.2674">
        <ele>363.6</ele>
        <time>2017-12-03T10:14:18Z</time>
      </trkpt>
      <trkpt lat="43.54463" lon="6.26743">
        <ele>363.3</ele>
        <time>2017-12-03T10:14:26Z</time>
      </trkpt>
      <trkpt lat="43.54456" lon="6.26751">
        <ele>363.1</ele>
        <time>2017-12-03T10:14:35Z</time>
      </trkpt>
      <trkpt lat="43.54448" lon="6.26762">
        <ele>363</ele>
        <time>2017-12-03T10:14:43Z</time>
      </trkpt>
      <trkpt lat="43.54441" lon="6.2677">
        <ele>362.8</ele>
        <time>2017-12-03T10:14:50Z</time>
      </trkpt>
      <trkpt lat="43.54432" lon="6.26777">
        <ele>362.5</ele>
        <time>2017-12-03T10:14:59Z</time>
      </trkpt>
      <trkpt lat="43.54423" lon="6.26782">
        <ele>362</ele>
        <time>2017-12-03T10:15:08Z</time>
      </trkpt>
      <trkpt lat="43.54416" lon="6.26791">
        <ele>361.2</ele>
        <time>2017-12-03T10:15:17Z</time>
      </trkpt>
      <trkpt lat="43.54409" lon="6.268">
        <ele>360.2</ele>
        <time>2017-12-03T10:15:26Z</time>
      </trkpt>
      <trkpt lat="43.54399" lon="6.26805">
        <ele>359.6</ele>
        <time>2017-12-03T10:15:35Z</time>
      </trkpt>
      <trkpt lat="43.54391" lon="6.26811">
        <ele>359</ele>
        <time>2017-12-03T10:15:42Z</time>
      </trkpt>
      <trkpt lat="43.54384" lon="6.2682">
        <ele>358.4</ele>
        <time>2017-12-03T10:15:51Z</time>
      </trkpt>
      <trkpt lat="43.54377" lon="6.26828">
        <ele>357.5</ele>
        <time>2017-12-03T10:16:01Z</time>
      </trkpt>
      <trkpt lat="43.54369" lon="6.26834">
        <ele>356.2</ele>
        <time>2017-12-03T10:16:11Z</time>
      </trkpt>
      <trkpt lat="43.54362" lon="6.26843">
        <ele>354.8</ele>
        <time>2017-12-03T10:16:22Z</time>
      </trkpt>
      <trkpt lat="43.54357" lon="6.26854">
        <ele>353.3</ele>
        <time>2017-12-03T10:16:31Z</time>
      </trkpt>
      <trkpt lat="43.54355" lon="6.26868">
        <ele>351.9</ele>
        <time>2017-12-03T10:16:41Z</time>
      </trkpt>
      <trkpt lat="43.5435" lon="6.26879">
        <ele>350.8</ele>
        <time>2017-12-03T10:16:50Z</time>
      </trkpt>
      <trkpt lat="43.54342" lon="6.26887">
        <ele>350</ele>
        <time>2017-12-03T10:16:59Z</time>
      </trkpt>
      <trkpt lat="43.54333" lon="6.26884">
        <ele>349.3</ele>
        <time>2017-12-03T10:17:08Z</time>
      </trkpt>
      <trkpt lat="43.54325" lon="6.26879">
        <ele>349</ele>
        <time>2017-12-03T10:17:14Z</time>
      </trkpt>
      <trkpt lat="43.54317" lon="6.26873">
        <ele>347.6</ele>
        <time>2017-12-03T10:17:45Z</time>
      </trkpt>
      <trkpt lat="43.54307" lon="6.26872">
        <ele>347.5</ele>
        <time>2017-12-03T10:17:53Z</time>
      </trkpt>
      <trkpt lat="43.54298" lon="6.26873">
        <ele>347.4</ele>
        <time>2017-12-03T10:18:01Z</time>
      </trkpt>
      <trkpt lat="43.54289" lon="6.26878">
        <ele>347.4</ele>
        <time>2017-12-03T10:18:10Z</time>
      </trkpt>
      <trkpt lat="43.54279" lon="6.26881">
        <ele>347.4</ele>
        <time>2017-12-03T10:18:20Z</time>
      </trkpt>
      <trkpt lat="43.54272" lon="6.26889">
        <ele>347.7</ele>
        <time>2017-12-03T10:18:32Z</time>
      </trkpt>
      <trkpt lat="43.54263" lon="6.26883">
        <ele>348.6</ele>
        <time>2017-12-03T10:19:20Z</time>
      </trkpt>
      <trkpt lat="43.54255" lon="6.26891">
        <ele>349.8</ele>
        <time>2017-12-03T10:19:39Z</time>
      </trkpt>
      <trkpt lat="43.54246" lon="6.26893">
        <ele>351.6</ele>
        <time>2017-12-03T10:19:55Z</time>
      </trkpt>
      <trkpt lat="43.54243" lon="6.26905">
        <ele>353</ele>
        <time>2017-12-03T10:20:09Z</time>
      </trkpt>
      <trkpt lat="43.54237" lon="6.26914">
        <ele>355.5</ele>
        <time>2017-12-03T10:20:34Z</time>
      </trkpt>
      <trkpt lat="43.54229" lon="6.26921">
        <ele>358.3</ele>
        <time>2017-12-03T10:21:01Z</time>
      </trkpt>
      <trkpt lat="43.54225" lon="6.26933">
        <ele>361.1</ele>
        <time>2017-12-03T10:21:26Z</time>
      </trkpt>
      <trkpt lat="43.54218" lon="6.2694">
        <ele>365.4</ele>
        <time>2017-12-03T10:21:55Z</time>
      </trkpt>
      <trkpt lat="43.54218" lon="6.26953">
        <ele>367.2</ele>
        <time>2017-12-03T10:22:11Z</time>
      </trkpt>
      <trkpt lat="43.5421" lon="6.26958">
        <ele>369.4</ele>
        <time>2017-12-03T10:22:31Z</time>
      </trkpt>
      <trkpt lat="43.54203" lon="6.26967">
        <ele>371.3</ele>
        <time>2017-12-03T10:22:46Z</time>
      </trkpt>
      <trkpt lat="43.54196" lon="6.26976">
        <ele>373.4</ele>
        <time>2017-12-03T10:23:02Z</time>
      </trkpt>
      <trkpt lat="43.54191" lon="6.26986">
        <ele>375.7</ele>
        <time>2017-12-03T10:23:22Z</time>
      </trkpt>
      <trkpt lat="43.54188" lon="6.26999">
        <ele>377</ele>
        <time>2017-12-03T10:24:06Z</time>
      </trkpt>
      <trkpt lat="43.54185" lon="6.27011">
        <ele>377.3</ele>
        <time>2017-12-03T10:24:19Z</time>
      </trkpt>
      <trkpt lat="43.54183" lon="6.27024">
        <ele>378</ele>
        <time>2017-12-03T10:24:36Z</time>
      </trkpt>
      <trkpt lat="43.54179" lon="6.27036">
        <ele>378.5</ele>
        <time>2017-12-03T10:24:46Z</time>
      </trkpt>
      <trkpt lat="43.54172" lon="6.27045">
        <ele>378.8</ele>
        <time>2017-12-03T10:25:06Z</time>
      </trkpt>
      <trkpt lat="43.54167" lon="6.27055">
        <ele>377.2</ele>
        <time>2017-12-03T10:25:50Z</time>
      </trkpt>
      <trkpt lat="43.54159" lon="6.27063">
        <ele>376.1</ele>
        <time>2017-12-03T10:26:05Z</time>
      </trkpt>
      <trkpt lat="43.54154" lon="6.27074">
        <ele>375.1</ele>
        <time>2017-12-03T10:26:16Z</time>
      </trkpt>
      <trkpt lat="43.54151" lon="6.27086">
        <ele>373.9</ele>
        <time>2017-12-03T10:26:26Z</time>
      </trkpt>
      <trkpt lat="43.54149" lon="6.271">
        <ele>372.8</ele>
        <time>2017-12-03T10:26:35Z</time>
      </trkpt>
      <trkpt lat="43.54145" lon="6.27112">
        <ele>372.2</ele>
        <time>2017-12-03T10:26:43Z</time>
      </trkpt>
      <trkpt lat="43.54141" lon="6.27124">
        <ele>371.6</ele>
        <time>2017-12-03T10:26:53Z</time>
      </trkpt>
      <trkpt lat="43.54136" lon="6.27136">
        <ele>371.1</ele>
        <time>2017-12-03T10:27:01Z</time>
      </trkpt>
      <trkpt lat="43.54131" lon="6.27147">
        <ele>370.8</ele>
        <time>2017-12-03T10:27:09Z</time>
      </trkpt>
      <trkpt lat="43.54128" lon="6.2716">
        <ele>370.6</ele>
        <time>2017-12-03T10:27:19Z</time>
      </trkpt>
      <trkpt lat="43.54125" lon="6.27173">
        <ele>370.5</ele>
        <time>2017-12-03T10:27:27Z</time>
      </trkpt>
      <trkpt lat="43.54121" lon="6.27184">
        <ele>370.4</ele>
        <time>2017-12-03T10:27:35Z</time>
      </trkpt>
      <trkpt lat="43.54116" lon="6.27196">
        <ele>370.2</ele>
        <time>2017-12-03T10:27:43Z</time>
      </trkpt>
      <trkpt lat="43.54109" lon="6.27205">
        <ele>370</ele>
        <time>2017-12-03T10:27:52Z</time>
      </trkpt>
      <trkpt lat="43.54102" lon="6.27214">
        <ele>370</ele>
        <time>2017-12-03T10:28:00Z</time>
      </trkpt>
      <trkpt lat="43.54097" lon="6.27225">
        <ele>370.5</ele>
        <time>2017-12-03T10:28:10Z</time>
      </trkpt>
      <trkpt lat="43.5409" lon="6.27235">
        <ele>370.9</ele>
        <time>2017-12-03T10:28:19Z</time>
      </trkpt>
      <trkpt lat="43.54084" lon="6.27244">
        <ele>371.6</ele>
        <time>2017-12-03T10:28:28Z</time>
      </trkpt>
      <trkpt lat="43.54077" lon="6.27253">
        <ele>372.1</ele>
        <time>2017-12-03T10:28:39Z</time>
      </trkpt>
      <trkpt lat="43.54071" lon="6.27263">
        <ele>372.5</ele>
        <time>2017-12-03T10:28:47Z</time>
      </trkpt>
      <trkpt lat="43.54065" lon="6.27274">
        <ele>373.4</ele>
        <time>2017-12-03T10:28:58Z</time>
      </trkpt>
      <trkpt lat="43.5406" lon="6.27286">
        <ele>374</ele>
        <time>2017-12-03T10:29:07Z</time>
      </trkpt>
      <trkpt lat="43.54053" lon="6.27294">
        <ele>375</ele>
        <time>2017-12-03T10:29:17Z</time>
      </trkpt>
      <trkpt lat="43.54048" lon="6.27306">
        <ele>376.1</ele>
        <time>2017-12-03T10:29:27Z</time>
      </trkpt>
      <trkpt lat="43.54043" lon="6.27316">
        <ele>376.8</ele>
        <time>2017-12-03T10:29:36Z</time>
      </trkpt>
      <trkpt lat="43.54037" lon="6.27326">
        <ele>377.7</ele>
        <time>2017-12-03T10:29:45Z</time>
      </trkpt>
      <trkpt lat="43.54029" lon="6.27332">
        <ele>378.3</ele>
        <time>2017-12-03T10:29:55Z</time>
      </trkpt>
      <trkpt lat="43.54021" lon="6.27341">
        <ele>378.6</ele>
        <time>2017-12-03T10:30:03Z</time>
      </trkpt>
      <trkpt lat="43.54016" lon="6.27352">
        <ele>378.7</ele>
        <time>2017-12-03T10:30:12Z</time>
      </trkpt>
      <trkpt lat="43.54011" lon="6.27363">
        <ele>378.8</ele>
        <time>2017-12-03T10:30:21Z</time>
      </trkpt>
      <trkpt lat="43.54007" lon="6.27375">
        <ele>378.9</ele>
        <time>2017-12-03T10:30:30Z</time>
      </trkpt>
      <trkpt lat="43.54002" lon="6.27386">
        <ele>378.9</ele>
        <time>2017-12-03T10:30:36Z</time>
      </trkpt>
      <trkpt lat="43.53997" lon="6.27397">
        <ele>378.8</ele>
        <time>2017-12-03T10:30:44Z</time>
      </trkpt>
      <trkpt lat="43.53989" lon="6.27405">
        <ele>378.5</ele>
        <time>2017-12-03T10:30:52Z</time>
      </trkpt>
      <trkpt lat="43.53983" lon="6.27414">
        <ele>378.3</ele>
        <time>2017-12-03T10:31:00Z</time>
      </trkpt>
      <trkpt lat="43.53975" lon="6.27423">
        <ele>378.2</ele>
        <time>2017-12-03T10:31:07Z</time>
      </trkpt>
      <trkpt lat="43.53969" lon="6.27432">
        <ele>378.1</ele>
        <time>2017-12-03T10:31:16Z</time>
      </trkpt>
      <trkpt lat="43.53962" lon="6.27441">
        <ele>378</ele>
        <time>2017-12-03T10:31:26Z</time>
      </trkpt>
      <trkpt lat="43.53956" lon="6.27451">
        <ele>378</ele>
        <time>2017-12-03T10:31:41Z</time>
      </trkpt>
      <trkpt lat="43.53961" lon="6.27462">
        <ele>377.9</ele>
        <time>2017-12-03T10:32:15Z</time>
      </trkpt>
      <trkpt lat="43.53952" lon="6.27467">
        <ele>378.5</ele>
        <time>2017-12-03T10:32:35Z</time>
      </trkpt>
      <trkpt lat="43.53945" lon="6.27475">
        <ele>379.4</ele>
        <time>2017-12-03T10:32:52Z</time>
      </trkpt>
      <trkpt lat="43.5394" lon="6.27486">
        <ele>380.5</ele>
        <time>2017-12-03T10:33:05Z</time>
      </trkpt>
      <trkpt lat="43.53935" lon="6.27497">
        <ele>381.4</ele>
        <time>2017-12-03T10:33:17Z</time>
      </trkpt>
      <trkpt lat="43.53929" lon="6.27507">
        <ele>382</ele>
        <time>2017-12-03T10:33:27Z</time>
      </trkpt>
      <trkpt lat="43.5393" lon="6.2752">
        <ele>383.2</ele>
        <time>2017-12-03T10:33:55Z</time>
      </trkpt>
      <trkpt lat="43.53933" lon="6.27533">
        <ele>383.4</ele>
        <time>2017-12-03T10:34:13Z</time>
      </trkpt>
      <trkpt lat="43.53939" lon="6.27524">
        <ele>383.6</ele>
        <time>2017-12-03T10:34:38Z</time>
      </trkpt>
      <trkpt lat="43.53932" lon="6.27516">
        <ele>383.6</ele>
        <time>2017-12-03T10:36:08Z</time>
      </trkpt>
      <trkpt lat="43.5394" lon="6.27524">
        <ele>383.5</ele>
        <time>2017-12-03T10:37:03Z</time>
      </trkpt>
      <trkpt lat="43.53944" lon="6.27536">
        <ele>383.5</ele>
        <time>2017-12-03T10:37:12Z</time>
      </trkpt>
      <trkpt lat="43.5395" lon="6.27546">
        <ele>383.6</ele>
        <time>2017-12-03T10:37:21Z</time>
      </trkpt>
      <trkpt lat="43.53956" lon="6.27556">
        <ele>383.7</ele>
        <time>2017-12-03T10:37:28Z</time>
      </trkpt>
      <trkpt lat="43.5396" lon="6.27568">
        <ele>384.4</ele>
        <time>2017-12-03T10:37:49Z</time>
      </trkpt>
      <trkpt lat="43.5396" lon="6.27582">
        <ele>384.5</ele>
        <time>2017-12-03T10:37:59Z</time>
      </trkpt>
      <trkpt lat="43.5396" lon="6.27594">
        <ele>384.2</ele>
        <time>2017-12-03T10:38:07Z</time>
      </trkpt>
      <trkpt lat="43.53961" lon="6.27607">
        <ele>384</ele>
        <time>2017-12-03T10:38:16Z</time>
      </trkpt>
      <trkpt lat="43.53962" lon="6.27621">
        <ele>383.6</ele>
        <time>2017-12-03T10:38:25Z</time>
      </trkpt>
      <trkpt lat="43.53962" lon="6.27635">
        <ele>383.3</ele>
        <time>2017-12-03T10:38:32Z</time>
      </trkpt>
      <trkpt lat="43.53961" lon="6.27649">
        <ele>383</ele>
        <time>2017-12-03T10:38:39Z</time>
      </trkpt>
      <trkpt lat="43.53962" lon="6.27662">
        <ele>382.4</ele>
        <time>2017-12-03T10:38:50Z</time>
      </trkpt>
      <trkpt lat="43.53963" lon="6.27675">
        <ele>382.2</ele>
        <time>2017-12-03T10:38:57Z</time>
      </trkpt>
      <trkpt lat="43.53961" lon="6.27689">
        <ele>382</ele>
        <time>2017-12-03T10:39:06Z</time>
      </trkpt>
      <trkpt lat="43.53961" lon="6.27702">
        <ele>381.9</ele>
        <time>2017-12-03T10:39:13Z</time>
      </trkpt>
      <trkpt lat="43.53961" lon="6.27715">
        <ele>381.8</ele>
        <time>2017-12-03T10:39:21Z</time>
      </trkpt>
      <trkpt lat="43.53962" lon="6.27729">
        <ele>381.7</ele>
        <time>2017-12-03T10:39:31Z</time>
      </trkpt>
      <trkpt lat="43.53961" lon="6.27742">
        <ele>381.6</ele>
        <time>2017-12-03T10:39:39Z</time>
      </trkpt>
      <trkpt lat="43.53961" lon="6.27754">
        <ele>381.6</ele>
        <time>2017-12-03T10:39:46Z</time>
      </trkpt>
      <trkpt lat="43.53961" lon="6.27767">
        <ele>381.6</ele>
        <time>2017-12-03T10:39:55Z</time>
      </trkpt>
      <trkpt lat="43.5396" lon="6.27781">
        <ele>381.5</ele>
        <time>2017-12-03T10:40:03Z</time>
      </trkpt>
      <trkpt lat="43.53959" lon="6.27793">
        <ele>381.5</ele>
        <time>2017-12-03T10:40:12Z</time>
      </trkpt>
      <trkpt lat="43.5396" lon="6.27806">
        <ele>381.8</ele>
        <time>2017-12-03T10:40:23Z</time>
      </trkpt>
      <trkpt lat="43.5396" lon="6.2782">
        <ele>382.3</ele>
        <time>2017-12-03T10:40:32Z</time>
      </trkpt>
      <trkpt lat="43.53961" lon="6.27833">
        <ele>382.9</ele>
        <time>2017-12-03T10:40:41Z</time>
      </trkpt>
      <trkpt lat="43.53957" lon="6.27845">
        <ele>383.4</ele>
        <time>2017-12-03T10:40:50Z</time>
      </trkpt>
      <trkpt lat="43.53954" lon="6.27858">
        <ele>384.2</ele>
        <time>2017-12-03T10:40:59Z</time>
      </trkpt>
      <trkpt lat="43.53951" lon="6.27872">
        <ele>384.7</ele>
        <time>2017-12-03T10:41:09Z</time>
      </trkpt>
      <trkpt lat="43.5395" lon="6.27884">
        <ele>385</ele>
        <time>2017-12-03T10:41:16Z</time>
      </trkpt>
      <trkpt lat="43.53948" lon="6.27898">
        <ele>385.4</ele>
        <time>2017-12-03T10:41:24Z</time>
      </trkpt>
      <trkpt lat="43.53947" lon="6.27912">
        <ele>385.9</ele>
        <time>2017-12-03T10:41:32Z</time>
      </trkpt>
      <trkpt lat="43.53944" lon="6.27923">
        <ele>386.3</ele>
        <time>2017-12-03T10:41:42Z</time>
      </trkpt>
      <trkpt lat="43.53939" lon="6.27935">
        <ele>386.6</ele>
        <time>2017-12-03T10:41:51Z</time>
      </trkpt>
      <trkpt lat="43.53936" lon="6.27948">
        <ele>387</ele>
        <time>2017-12-03T10:41:59Z</time>
      </trkpt>
      <trkpt lat="43.53934" lon="6.2796">
        <ele>387.3</ele>
        <time>2017-12-03T10:42:07Z</time>
      </trkpt>
      <trkpt lat="43.53932" lon="6.27973">
        <ele>387.5</ele>
        <time>2017-12-03T10:42:15Z</time>
      </trkpt>
      <trkpt lat="43.53929" lon="6.27986">
        <ele>387.7</ele>
        <time>2017-12-03T10:42:23Z</time>
      </trkpt>
      <trkpt lat="43.53928" lon="6.27999">
        <ele>387.8</ele>
        <time>2017-12-03T10:42:31Z</time>
      </trkpt>
      <trkpt lat="43.53924" lon="6.2801">
        <ele>388.1</ele>
        <time>2017-12-03T10:42:39Z</time>
      </trkpt>
      <trkpt lat="43.53921" lon="6.28023">
        <ele>388.2</ele>
        <time>2017-12-03T10:42:48Z</time>
      </trkpt>
      <trkpt lat="43.53918" lon="6.28035">
        <ele>388.3</ele>
        <time>2017-12-03T10:42:56Z</time>
      </trkpt>
      <trkpt lat="43.53914" lon="6.28047">
        <ele>388.6</ele>
        <time>2017-12-03T10:43:04Z</time>
      </trkpt>
      <trkpt lat="43.53914" lon="6.28061">
        <ele>388.8</ele>
        <time>2017-12-03T10:43:14Z</time>
      </trkpt>
      <trkpt lat="43.53911" lon="6.28074">
        <ele>389.3</ele>
        <time>2017-12-03T10:43:23Z</time>
      </trkpt>
      <trkpt lat="43.53908" lon="6.28087">
        <ele>389.6</ele>
        <time>2017-12-03T10:43:32Z</time>
      </trkpt>
      <trkpt lat="43.53904" lon="6.28099">
        <ele>389.7</ele>
        <time>2017-12-03T10:43:40Z</time>
      </trkpt>
      <trkpt lat="43.53901" lon="6.28111">
        <ele>389.9</ele>
        <time>2017-12-03T10:43:48Z</time>
      </trkpt>
      <trkpt lat="43.53894" lon="6.28121">
        <ele>389.8</ele>
        <time>2017-12-03T10:43:59Z</time>
      </trkpt>
      <trkpt lat="43.53886" lon="6.28129">
        <ele>389.2</ele>
        <time>2017-12-03T10:44:08Z</time>
      </trkpt>
      <trkpt lat="43.53878" lon="6.28135">
        <ele>388.6</ele>
        <time>2017-12-03T10:44:15Z</time>
      </trkpt>
      <trkpt lat="43.53868" lon="6.28137">
        <ele>387.5</ele>
        <time>2017-12-03T10:44:23Z</time>
      </trkpt>
      <trkpt lat="43.53859" lon="6.28142">
        <ele>386.2</ele>
        <time>2017-12-03T10:44:31Z</time>
      </trkpt>
      <trkpt lat="43.53851" lon="6.28149">
        <ele>385.3</ele>
        <time>2017-12-03T10:44:40Z</time>
      </trkpt>
      <trkpt lat="43.53843" lon="6.28157">
        <ele>384.7</ele>
        <time>2017-12-03T10:44:47Z</time>
      </trkpt>
      <trkpt lat="43.53835" lon="6.28166">
        <ele>384.1</ele>
        <time>2017-12-03T10:44:55Z</time>
      </trkpt>
      <trkpt lat="43.53829" lon="6.28176">
        <ele>383.4</ele>
        <time>2017-12-03T10:45:04Z</time>
      </trkpt>
      <trkpt lat="43.53821" lon="6.28185">
        <ele>382.9</ele>
        <time>2017-12-03T10:45:12Z</time>
      </trkpt>
      <trkpt lat="43.53816" lon="6.28195">
        <ele>382.6</ele>
        <time>2017-12-03T10:45:21Z</time>
      </trkpt>
      <trkpt lat="43.53815" lon="6.28208">
        <ele>382.1</ele>
        <time>2017-12-03T10:45:31Z</time>
      </trkpt>
      <trkpt lat="43.53812" lon="6.2822">
        <ele>381.7</ele>
        <time>2017-12-03T10:45:38Z</time>
      </trkpt>
      <trkpt lat="43.53808" lon="6.28233">
        <ele>381.5</ele>
        <time>2017-12-03T10:45:46Z</time>
      </trkpt>
      <trkpt lat="43.53805" lon="6.28245">
        <ele>381</ele>
        <time>2017-12-03T10:45:54Z</time>
      </trkpt>
      <trkpt lat="43.53802" lon="6.28257">
        <ele>380.5</ele>
        <time>2017-12-03T10:46:04Z</time>
      </trkpt>
      <trkpt lat="43.53796" lon="6.28268">
        <ele>380.1</ele>
        <time>2017-12-03T10:46:14Z</time>
      </trkpt>
      <trkpt lat="43.53791" lon="6.2828">
        <ele>379.8</ele>
        <time>2017-12-03T10:46:22Z</time>
      </trkpt>
      <trkpt lat="43.53786" lon="6.28292">
        <ele>379.5</ele>
        <time>2017-12-03T10:46:31Z</time>
      </trkpt>
      <trkpt lat="43.53779" lon="6.283">
        <ele>379.2</ele>
        <time>2017-12-03T10:46:40Z</time>
      </trkpt>
      <trkpt lat="43.53774" lon="6.28312">
        <ele>379</ele>
        <time>2017-12-03T10:46:49Z</time>
      </trkpt>
      <trkpt lat="43.53771" lon="6.28326">
        <ele>378.9</ele>
        <time>2017-12-03T10:46:59Z</time>
      </trkpt>
      <trkpt lat="43.53771" lon="6.28339">
        <ele>378.9</ele>
        <time>2017-12-03T10:47:06Z</time>
      </trkpt>
      <trkpt lat="43.53767" lon="6.28351">
        <ele>378.8</ele>
        <time>2017-12-03T10:47:52Z</time>
      </trkpt>
      <trkpt lat="43.53759" lon="6.28341">
        <ele>378.6</ele>
        <time>2017-12-03T10:48:11Z</time>
      </trkpt>
      <trkpt lat="43.53753" lon="6.28331">
        <ele>378.5</ele>
        <time>2017-12-03T10:48:22Z</time>
      </trkpt>
      <trkpt lat="43.53745" lon="6.28323">
        <ele>378.2</ele>
        <time>2017-12-03T10:48:33Z</time>
      </trkpt>
      <trkpt lat="43.53738" lon="6.28312">
        <ele>378.1</ele>
        <time>2017-12-03T10:48:44Z</time>
      </trkpt>
      <trkpt lat="43.53734" lon="6.283">
        <ele>378</ele>
        <time>2017-12-03T10:48:54Z</time>
      </trkpt>
      <trkpt lat="43.53729" lon="6.28289">
        <ele>378</ele>
        <time>2017-12-03T10:49:05Z</time>
      </trkpt>
      <trkpt lat="43.53723" lon="6.2828">
        <ele>377.9</ele>
        <time>2017-12-03T10:49:15Z</time>
      </trkpt>
      <trkpt lat="43.53717" lon="6.2827">
        <ele>377.8</ele>
        <time>2017-12-03T10:49:22Z</time>
      </trkpt>
      <trkpt lat="43.5371" lon="6.28261">
        <ele>377.7</ele>
        <time>2017-12-03T10:49:37Z</time>
      </trkpt>
      <trkpt lat="43.53701" lon="6.28257">
        <ele>377.6</ele>
        <time>2017-12-03T10:49:50Z</time>
      </trkpt>
      <trkpt lat="43.53691" lon="6.28251">
        <ele>377.6</ele>
        <time>2017-12-03T10:50:00Z</time>
      </trkpt>
      <trkpt lat="43.53683" lon="6.28245">
        <ele>377.5</ele>
        <time>2017-12-03T10:50:10Z</time>
      </trkpt>
      <trkpt lat="43.53675" lon="6.28239">
        <ele>377.2</ele>
        <time>2017-12-03T10:50:20Z</time>
      </trkpt>
      <trkpt lat="43.53665" lon="6.28233">
        <ele>377.1</ele>
        <time>2017-12-03T10:50:26Z</time>
      </trkpt>
      <trkpt lat="43.53657" lon="6.28225">
        <ele>376.7</ele>
        <time>2017-12-03T10:50:35Z</time>
      </trkpt>
      <trkpt lat="43.53648" lon="6.28218">
        <ele>375.7</ele>
        <time>2017-12-03T10:50:48Z</time>
      </trkpt>
      <trkpt lat="43.53639" lon="6.28214">
        <ele>374.9</ele>
        <time>2017-12-03T10:50:56Z</time>
      </trkpt>
      <trkpt lat="43.5363" lon="6.28212">
        <ele>373.8</ele>
        <time>2017-12-03T10:51:05Z</time>
      </trkpt>
      <trkpt lat="43.53621" lon="6.28213">
        <ele>372.5</ele>
        <time>2017-12-03T10:51:14Z</time>
      </trkpt>
      <trkpt lat="43.53612" lon="6.28213">
        <ele>371.2</ele>
        <time>2017-12-03T10:51:23Z</time>
      </trkpt>
      <trkpt lat="43.53602" lon="6.28215">
        <ele>369.7</ele>
        <time>2017-12-03T10:51:33Z</time>
      </trkpt>
      <trkpt lat="43.53593" lon="6.28217">
        <ele>368.9</ele>
        <time>2017-12-03T10:51:41Z</time>
      </trkpt>
      <trkpt lat="43.53584" lon="6.28222">
        <ele>367.9</ele>
        <time>2017-12-03T10:51:51Z</time>
      </trkpt>
      <trkpt lat="43.53575" lon="6.28224">
        <ele>366.9</ele>
        <time>2017-12-03T10:52:02Z</time>
      </trkpt>
      <trkpt lat="43.53565" lon="6.28227">
        <ele>365.9</ele>
        <time>2017-12-03T10:52:13Z</time>
      </trkpt>
      <trkpt lat="43.53556" lon="6.28229">
        <ele>365.3</ele>
        <time>2017-12-03T10:52:20Z</time>
      </trkpt>
      <trkpt lat="43.53547" lon="6.28234">
        <ele>364.3</ele>
        <time>2017-12-03T10:52:31Z</time>
      </trkpt>
      <trkpt lat="43.53537" lon="6.28239">
        <ele>363.2</ele>
        <time>2017-12-03T10:52:41Z</time>
      </trkpt>
      <trkpt lat="43.53528" lon="6.28243">
        <ele>362.1</ele>
        <time>2017-12-03T10:52:50Z</time>
      </trkpt>
      <trkpt lat="43.53519" lon="6.28247">
        <ele>361</ele>
        <time>2017-12-03T10:53:02Z</time>
      </trkpt>
      <trkpt lat="43.53509" lon="6.28246">
        <ele>359.4</ele>
        <time>2017-12-03T10:53:15Z</time>
      </trkpt>
      <trkpt lat="43.535" lon="6.28246">
        <ele>358.3</ele>
        <time>2017-12-03T10:53:23Z</time>
      </trkpt>
      <trkpt lat="43.5349" lon="6.28249">
        <ele>357.2</ele>
        <time>2017-12-03T10:53:33Z</time>
      </trkpt>
      <trkpt lat="43.53483" lon="6.28257">
        <ele>355.6</ele>
        <time>2017-12-03T10:53:46Z</time>
      </trkpt>
      <trkpt lat="43.53481" lon="6.2827">
        <ele>354.5</ele>
        <time>2017-12-03T10:53:56Z</time>
      </trkpt>
      <trkpt lat="43.53482" lon="6.28283">
        <ele>353.7</ele>
        <time>2017-12-03T10:54:07Z</time>
      </trkpt>
      <trkpt lat="43.53485" lon="6.28296">
        <ele>353.2</ele>
        <time>2017-12-03T10:54:17Z</time>
      </trkpt>
      <trkpt lat="43.53489" lon="6.28307">
        <ele>352.9</ele>
        <time>2017-12-03T10:54:26Z</time>
      </trkpt>
      <trkpt lat="43.53496" lon="6.28315">
        <ele>352.8</ele>
        <time>2017-12-03T10:54:35Z</time>
      </trkpt>
      <trkpt lat="43.53502" lon="6.28325">
        <ele>353.3</ele>
        <time>2017-12-03T10:54:45Z</time>
      </trkpt>
      <trkpt lat="43.53509" lon="6.28334">
        <ele>353.8</ele>
        <time>2017-12-03T10:54:54Z</time>
      </trkpt>
      <trkpt lat="43.53514" lon="6.28346">
        <ele>354.1</ele>
        <time>2017-12-03T10:55:04Z</time>
      </trkpt>
      <trkpt lat="43.53521" lon="6.28356">
        <ele>354.2</ele>
        <time>2017-12-03T10:55:12Z</time>
      </trkpt>
      <trkpt lat="43.53526" lon="6.28367">
        <ele>354.3</ele>
        <time>2017-12-03T10:55:20Z</time>
      </trkpt>
      <trkpt lat="43.53531" lon="6.28377">
        <ele>354.3</ele>
        <time>2017-12-03T10:55:31Z</time>
      </trkpt>
      <trkpt lat="43.53539" lon="6.28384">
        <ele>354.1</ele>
        <time>2017-12-03T10:55:40Z</time>
      </trkpt>
      <trkpt lat="43.53546" lon="6.28394">
        <ele>353.9</ele>
        <time>2017-12-03T10:55:49Z</time>
      </trkpt>
      <trkpt lat="43.5355" lon="6.28406">
        <ele>354</ele>
        <time>2017-12-03T10:56:00Z</time>
      </trkpt>
      <trkpt lat="43.53554" lon="6.28419">
        <ele>354.1</ele>
        <time>2017-12-03T10:56:11Z</time>
      </trkpt>
      <trkpt lat="43.5356" lon="6.28429">
        <ele>354.3</ele>
        <time>2017-12-03T10:56:20Z</time>
      </trkpt>
      <trkpt lat="43.53566" lon="6.28439">
        <ele>354.5</ele>
        <time>2017-12-03T10:56:31Z</time>
      </trkpt>
      <trkpt lat="43.53571" lon="6.2845">
        <ele>354.2</ele>
        <time>2017-12-03T10:56:40Z</time>
      </trkpt>
      <trkpt lat="43.53577" lon="6.28461">
        <ele>354</ele>
        <time>2017-12-03T10:56:50Z</time>
      </trkpt>
      <trkpt lat="43.53581" lon="6.28473">
        <ele>353.9</ele>
        <time>2017-12-03T10:56:59Z</time>
      </trkpt>
      <trkpt lat="43.53585" lon="6.28485">
        <ele>353.8</ele>
        <time>2017-12-03T10:57:15Z</time>
      </trkpt>
      <trkpt lat="43.53592" lon="6.28493">
        <ele>353.9</ele>
        <time>2017-12-03T10:57:42Z</time>
      </trkpt>
      <trkpt lat="43.53595" lon="6.28505">
        <ele>353.9</ele>
        <time>2017-12-03T10:57:52Z</time>
      </trkpt>
      <trkpt lat="43.536" lon="6.28516">
        <ele>353.8</ele>
        <time>2017-12-03T10:58:05Z</time>
      </trkpt>
      <trkpt lat="43.53609" lon="6.28518">
        <ele>353.9</ele>
        <time>2017-12-03T10:58:38Z</time>
      </trkpt>
      <trkpt lat="43.536" lon="6.28516">
        <ele>353.7</ele>
        <time>2017-12-03T10:59:26Z</time>
      </trkpt>
      <trkpt lat="43.53599" lon="6.28529">
        <ele>352.7</ele>
        <time>2017-12-03T11:02:43Z</time>
      </trkpt>
      <trkpt lat="43.53594" lon="6.28529">
        <ele>353.6</ele>
        <time>2017-12-03T12:07:52Z</time>
      </trkpt>
      <trkpt lat="43.53589" lon="6.28539">
        <ele>352.3</ele>
        <time>2017-12-03T12:08:07Z</time>
      </trkpt>
      <trkpt lat="43.53589" lon="6.28552">
        <ele>350.3</ele>
        <time>2017-12-03T12:08:20Z</time>
      </trkpt>
      <trkpt lat="43.53592" lon="6.28565">
        <ele>348.5</ele>
        <time>2017-12-03T12:08:31Z</time>
      </trkpt>
      <trkpt lat="43.5359" lon="6.28577">
        <ele>345.2</ele>
        <time>2017-12-03T12:09:47Z</time>
      </trkpt>
      <trkpt lat="43.53597" lon="6.28586">
        <ele>344.2</ele>
        <time>2017-12-03T12:10:26Z</time>
      </trkpt>
      <trkpt lat="43.53605" lon="6.28593">
        <ele>343.8</ele>
        <time>2017-12-03T12:10:36Z</time>
      </trkpt>
      <trkpt lat="43.53612" lon="6.286">
        <ele>343.5</ele>
        <time>2017-12-03T12:10:47Z</time>
      </trkpt>
      <trkpt lat="43.53618" lon="6.28611">
        <ele>343</ele>
        <time>2017-12-03T12:10:58Z</time>
      </trkpt>
      <trkpt lat="43.53619" lon="6.28623">
        <ele>342</ele>
        <time>2017-12-03T12:11:14Z</time>
      </trkpt>
      <trkpt lat="43.5361" lon="6.28627">
        <ele>340.9</ele>
        <time>2017-12-03T12:11:26Z</time>
      </trkpt>
      <trkpt lat="43.536" lon="6.28626">
        <ele>339.9</ele>
        <time>2017-12-03T12:11:40Z</time>
      </trkpt>
      <trkpt lat="43.53595" lon="6.28636">
        <ele>339</ele>
        <time>2017-12-03T12:12:12Z</time>
      </trkpt>
      <trkpt lat="43.53602" lon="6.28644">
        <ele>338</ele>
        <time>2017-12-03T12:12:46Z</time>
      </trkpt>
      <trkpt lat="43.5361" lon="6.28651">
        <ele>337.7</ele>
        <time>2017-12-03T12:13:16Z</time>
      </trkpt>
      <trkpt lat="43.53601" lon="6.28645">
        <ele>337.6</ele>
        <time>2017-12-03T12:13:58Z</time>
      </trkpt>
      <trkpt lat="43.53592" lon="6.28644">
        <ele>337.7</ele>
        <time>2017-12-03T12:14:08Z</time>
      </trkpt>
      <trkpt lat="43.53583" lon="6.2865">
        <ele>337.8</ele>
        <time>2017-12-03T12:14:19Z</time>
      </trkpt>
      <trkpt lat="43.53575" lon="6.28658">
        <ele>337.8</ele>
        <time>2017-12-03T12:14:29Z</time>
      </trkpt>
      <trkpt lat="43.53569" lon="6.28668">
        <ele>337.7</ele>
        <time>2017-12-03T12:14:38Z</time>
      </trkpt>
      <trkpt lat="43.53565" lon="6.2868">
        <ele>337.1</ele>
        <time>2017-12-03T12:14:48Z</time>
      </trkpt>
      <trkpt lat="43.5356" lon="6.2869">
        <ele>336.4</ele>
        <time>2017-12-03T12:14:59Z</time>
      </trkpt>
      <trkpt lat="43.53567" lon="6.28699">
        <ele>335.4</ele>
        <time>2017-12-03T12:15:40Z</time>
      </trkpt>
      <trkpt lat="43.53569" lon="6.28712">
        <ele>336.3</ele>
        <time>2017-12-03T12:15:51Z</time>
      </trkpt>
      <trkpt lat="43.53572" lon="6.28725">
        <ele>337.2</ele>
        <time>2017-12-03T12:16:03Z</time>
      </trkpt>
      <trkpt lat="43.53577" lon="6.28737">
        <ele>338.3</ele>
        <time>2017-12-03T12:16:14Z</time>
      </trkpt>
      <trkpt lat="43.53581" lon="6.28749">
        <ele>339.6</ele>
        <time>2017-12-03T12:16:24Z</time>
      </trkpt>
      <trkpt lat="43.53586" lon="6.2876">
        <ele>340.6</ele>
        <time>2017-12-03T12:16:34Z</time>
      </trkpt>
      <trkpt lat="43.53593" lon="6.28768">
        <ele>341.8</ele>
        <time>2017-12-03T12:16:53Z</time>
      </trkpt>
      <trkpt lat="43.53598" lon="6.28779">
        <ele>342.5</ele>
        <time>2017-12-03T12:17:03Z</time>
      </trkpt>
      <trkpt lat="43.53602" lon="6.2879">
        <ele>343</ele>
        <time>2017-12-03T12:17:17Z</time>
      </trkpt>
      <trkpt lat="43.53604" lon="6.28803">
        <ele>343.6</ele>
        <time>2017-12-03T12:17:49Z</time>
      </trkpt>
      <trkpt lat="43.53609" lon="6.28815">
        <ele>343.4</ele>
        <time>2017-12-03T12:18:04Z</time>
      </trkpt>
      <trkpt lat="43.53614" lon="6.28826">
        <ele>343.4</ele>
        <time>2017-12-03T12:18:13Z</time>
      </trkpt>
      <trkpt lat="43.53619" lon="6.28837">
        <ele>343.4</ele>
        <time>2017-12-03T12:18:22Z</time>
      </trkpt>
      <trkpt lat="43.53622" lon="6.28849">
        <ele>343.6</ele>
        <time>2017-12-03T12:18:31Z</time>
      </trkpt>
      <trkpt lat="43.53625" lon="6.28861">
        <ele>344.2</ele>
        <time>2017-12-03T12:18:42Z</time>
      </trkpt>
      <trkpt lat="43.53629" lon="6.28873">
        <ele>344.8</ele>
        <time>2017-12-03T12:18:53Z</time>
      </trkpt>
      <trkpt lat="43.53633" lon="6.28885">
        <ele>345.8</ele>
        <time>2017-12-03T12:19:05Z</time>
      </trkpt>
      <trkpt lat="43.53637" lon="6.28897">
        <ele>347</ele>
        <time>2017-12-03T12:19:16Z</time>
      </trkpt>
      <trkpt lat="43.53643" lon="6.28906">
        <ele>348.4</ele>
        <time>2017-12-03T12:19:26Z</time>
      </trkpt>
      <trkpt lat="43.5365" lon="6.28914">
        <ele>349.8</ele>
        <time>2017-12-03T12:19:37Z</time>
      </trkpt>
      <trkpt lat="43.53658" lon="6.28923">
        <ele>351</ele>
        <time>2017-12-03T12:19:47Z</time>
      </trkpt>
      <trkpt lat="43.53668" lon="6.28955">
        <ele>354.4</ele>
        <time>2017-12-03T12:39:06Z</time>
      </trkpt>
      <trkpt lat="43.53668" lon="6.28968">
        <ele>353.5</ele>
        <time>2017-12-03T12:39:15Z</time>
      </trkpt>
      <trkpt lat="43.5367" lon="6.28981">
        <ele>353</ele>
        <time>2017-12-03T12:39:25Z</time>
      </trkpt>
      <trkpt lat="43.53672" lon="6.28994">
        <ele>352.6</ele>
        <time>2017-12-03T12:39:33Z</time>
      </trkpt>
      <trkpt lat="43.53677" lon="6.29004">
        <ele>352.4</ele>
        <time>2017-12-03T12:39:42Z</time>
      </trkpt>
      <trkpt lat="43.53683" lon="6.29014">
        <ele>352.1</ele>
        <time>2017-12-03T12:40:11Z</time>
      </trkpt>
      <trkpt lat="43.53683" lon="6.29027">
        <ele>352</ele>
        <time>2017-12-03T12:40:43Z</time>
      </trkpt>
      <trkpt lat="43.53675" lon="6.29032">
        <ele>352.4</ele>
        <time>2017-12-03T12:41:01Z</time>
      </trkpt>
      <trkpt lat="43.53666" lon="6.29029">
        <ele>352.5</ele>
        <time>2017-12-03T12:41:09Z</time>
      </trkpt>
      <trkpt lat="43.53657" lon="6.2903">
        <ele>352.2</ele>
        <time>2017-12-03T12:41:29Z</time>
      </trkpt>
      <trkpt lat="43.53648" lon="6.29028">
        <ele>352</ele>
        <time>2017-12-03T12:41:36Z</time>
      </trkpt>
      <trkpt lat="43.53639" lon="6.29025">
        <ele>351.7</ele>
        <time>2017-12-03T12:41:42Z</time>
      </trkpt>
      <trkpt lat="43.53629" lon="6.29024">
        <ele>351.5</ele>
        <time>2017-12-03T12:41:50Z</time>
      </trkpt>
      <trkpt lat="43.5362" lon="6.29022">
        <ele>351.2</ele>
        <time>2017-12-03T12:41:59Z</time>
      </trkpt>
      <trkpt lat="43.53611" lon="6.29023">
        <ele>350.8</ele>
        <time>2017-12-03T12:42:06Z</time>
      </trkpt>
      <trkpt lat="43.53601" lon="6.29021">
        <ele>350.5</ele>
        <time>2017-12-03T12:42:14Z</time>
      </trkpt>
      <trkpt lat="43.53592" lon="6.29021">
        <ele>350.1</ele>
        <time>2017-12-03T12:42:22Z</time>
      </trkpt>
      <trkpt lat="43.53582" lon="6.29018">
        <ele>349.6</ele>
        <time>2017-12-03T12:42:31Z</time>
      </trkpt>
      <trkpt lat="43.53572" lon="6.29016">
        <ele>349</ele>
        <time>2017-12-03T12:42:40Z</time>
      </trkpt>
      <trkpt lat="43.53562" lon="6.29012">
        <ele>348.4</ele>
        <time>2017-12-03T12:42:49Z</time>
      </trkpt>
      <trkpt lat="43.53553" lon="6.29009">
        <ele>347.6</ele>
        <time>2017-12-03T12:42:58Z</time>
      </trkpt>
      <trkpt lat="43.53544" lon="6.29007">
        <ele>346.8</ele>
        <time>2017-12-03T12:43:08Z</time>
      </trkpt>
      <trkpt lat="43.53535" lon="6.29004">
        <ele>346.1</ele>
        <time>2017-12-03T12:43:18Z</time>
      </trkpt>
      <trkpt lat="43.53525" lon="6.29002">
        <ele>345.4</ele>
        <time>2017-12-03T12:43:27Z</time>
      </trkpt>
      <trkpt lat="43.53516" lon="6.28999">
        <ele>344.4</ele>
        <time>2017-12-03T12:43:39Z</time>
      </trkpt>
      <trkpt lat="43.53507" lon="6.28997">
        <ele>343.9</ele>
        <time>2017-12-03T12:43:47Z</time>
      </trkpt>
      <trkpt lat="43.53497" lon="6.28994">
        <ele>343.5</ele>
        <time>2017-12-03T12:43:55Z</time>
      </trkpt>
      <trkpt lat="43.53487" lon="6.28992">
        <ele>343</ele>
        <time>2017-12-03T12:44:04Z</time>
      </trkpt>
      <trkpt lat="43.53478" lon="6.28992">
        <ele>342.7</ele>
        <time>2017-12-03T12:44:12Z</time>
      </trkpt>
      <trkpt lat="43.53469" lon="6.28993">
        <ele>342.4</ele>
        <time>2017-12-03T12:44:22Z</time>
      </trkpt>
      <trkpt lat="43.53459" lon="6.28996">
        <ele>342.3</ele>
        <time>2017-12-03T12:44:30Z</time>
      </trkpt>
      <trkpt lat="43.5345" lon="6.28999">
        <ele>342</ele>
        <time>2017-12-03T12:44:37Z</time>
      </trkpt>
      <trkpt lat="43.53441" lon="6.29004">
        <ele>341.6</ele>
        <time>2017-12-03T12:44:49Z</time>
      </trkpt>
      <trkpt lat="43.53432" lon="6.29009">
        <ele>341.3</ele>
        <time>2017-12-03T12:44:57Z</time>
      </trkpt>
      <trkpt lat="43.53423" lon="6.29014">
        <ele>340.7</ele>
        <time>2017-12-03T12:45:07Z</time>
      </trkpt>
      <trkpt lat="43.53413" lon="6.29016">
        <ele>340.4</ele>
        <time>2017-12-03T12:45:15Z</time>
      </trkpt>
      <trkpt lat="43.53404" lon="6.29017">
        <ele>340.2</ele>
        <time>2017-12-03T12:45:23Z</time>
      </trkpt>
      <trkpt lat="43.53394" lon="6.29019">
        <ele>340.1</ele>
        <time>2017-12-03T12:45:31Z</time>
      </trkpt>
      <trkpt lat="43.53385" lon="6.29022">
        <ele>340.1</ele>
        <time>2017-12-03T12:45:40Z</time>
      </trkpt>
      <trkpt lat="43.53376" lon="6.29026">
        <ele>340</ele>
        <time>2017-12-03T12:45:49Z</time>
      </trkpt>
      <trkpt lat="43.53366" lon="6.29029">
        <ele>339.9</ele>
        <time>2017-12-03T12:45:59Z</time>
      </trkpt>
      <trkpt lat="43.53357" lon="6.29031">
        <ele>339.8</ele>
        <time>2017-12-03T12:46:06Z</time>
      </trkpt>
      <trkpt lat="43.53348" lon="6.29035">
        <ele>339.7</ele>
        <time>2017-12-03T12:46:17Z</time>
      </trkpt>
      <trkpt lat="43.53339" lon="6.29038">
        <ele>339.7</ele>
        <time>2017-12-03T12:46:25Z</time>
      </trkpt>
      <trkpt lat="43.53331" lon="6.29045">
        <ele>339.7</ele>
        <time>2017-12-03T12:46:33Z</time>
      </trkpt>
      <trkpt lat="43.53323" lon="6.29053">
        <ele>339.6</ele>
        <time>2017-12-03T12:46:41Z</time>
      </trkpt>
      <trkpt lat="43.53315" lon="6.29059">
        <ele>339.6</ele>
        <time>2017-12-03T12:46:48Z</time>
      </trkpt>
      <trkpt lat="43.53307" lon="6.29065">
        <ele>339.3</ele>
        <time>2017-12-03T12:46:53Z</time>
      </trkpt>
      <trkpt lat="43.53298" lon="6.29072">
        <ele>338.8</ele>
        <time>2017-12-03T12:47:02Z</time>
      </trkpt>
      <trkpt lat="43.53289" lon="6.29077">
        <ele>338.6</ele>
        <time>2017-12-03T12:47:09Z</time>
      </trkpt>
      <trkpt lat="43.53281" lon="6.29082">
        <ele>338.2</ele>
        <time>2017-12-03T12:47:17Z</time>
      </trkpt>
      <trkpt lat="43.53272" lon="6.29086">
        <ele>337.8</ele>
        <time>2017-12-03T12:47:25Z</time>
      </trkpt>
      <trkpt lat="43.53263" lon="6.29094">
        <ele>337.3</ele>
        <time>2017-12-03T12:47:34Z</time>
      </trkpt>
      <trkpt lat="43.53255" lon="6.29102">
        <ele>337.1</ele>
        <time>2017-12-03T12:47:41Z</time>
      </trkpt>
      <trkpt lat="43.53248" lon="6.2911">
        <ele>336.9</ele>
        <time>2017-12-03T12:47:50Z</time>
      </trkpt>
      <trkpt lat="43.53239" lon="6.29116">
        <ele>336.7</ele>
        <time>2017-12-03T12:47:58Z</time>
      </trkpt>
      <trkpt lat="43.53232" lon="6.29124">
        <ele>336.4</ele>
        <time>2017-12-03T12:48:08Z</time>
      </trkpt>
      <trkpt lat="43.53223" lon="6.2913">
        <ele>336.2</ele>
        <time>2017-12-03T12:48:15Z</time>
      </trkpt>
      <trkpt lat="43.53215" lon="6.29137">
        <ele>335.8</ele>
        <time>2017-12-03T12:48:23Z</time>
      </trkpt>
      <trkpt lat="43.53207" lon="6.29144">
        <ele>335.4</ele>
        <time>2017-12-03T12:48:31Z</time>
      </trkpt>
      <trkpt lat="43.53199" lon="6.29154">
        <ele>334.9</ele>
        <time>2017-12-03T12:48:40Z</time>
      </trkpt>
      <trkpt lat="43.53195" lon="6.29166">
        <ele>334.2</ele>
        <time>2017-12-03T12:48:51Z</time>
      </trkpt>
      <trkpt lat="43.5319" lon="6.29177">
        <ele>333.7</ele>
        <time>2017-12-03T12:49:01Z</time>
      </trkpt>
      <trkpt lat="43.53186" lon="6.29189">
        <ele>333</ele>
        <time>2017-12-03T12:49:10Z</time>
      </trkpt>
      <trkpt lat="43.53182" lon="6.292">
        <ele>332.3</ele>
        <time>2017-12-03T12:49:19Z</time>
      </trkpt>
      <trkpt lat="43.53178" lon="6.29212">
        <ele>331.7</ele>
        <time>2017-12-03T12:49:27Z</time>
      </trkpt>
      <trkpt lat="43.53175" lon="6.29224">
        <ele>331.1</ele>
        <time>2017-12-03T12:49:36Z</time>
      </trkpt>
      <trkpt lat="43.53173" lon="6.29237">
        <ele>330.7</ele>
        <time>2017-12-03T12:49:43Z</time>
      </trkpt>
      <trkpt lat="43.53171" lon="6.29249">
        <ele>330.1</ele>
        <time>2017-12-03T12:49:52Z</time>
      </trkpt>
      <trkpt lat="43.53165" lon="6.29261">
        <ele>329.5</ele>
        <time>2017-12-03T12:50:05Z</time>
      </trkpt>
      <trkpt lat="43.53161" lon="6.29272">
        <ele>329.1</ele>
        <time>2017-12-03T12:50:13Z</time>
      </trkpt>
      <trkpt lat="43.53159" lon="6.29285">
        <ele>328.5</ele>
        <time>2017-12-03T12:50:26Z</time>
      </trkpt>
      <trkpt lat="43.53155" lon="6.29296">
        <ele>327.9</ele>
        <time>2017-12-03T12:50:35Z</time>
      </trkpt>
      <trkpt lat="43.53153" lon="6.29309">
        <ele>327.5</ele>
        <time>2017-12-03T12:50:42Z</time>
      </trkpt>
      <trkpt lat="43.53153" lon="6.29322">
        <ele>327.1</ele>
        <time>2017-12-03T12:50:51Z</time>
      </trkpt>
      <trkpt lat="43.53153" lon="6.29335">
        <ele>326.9</ele>
        <time>2017-12-03T12:51:00Z</time>
      </trkpt>
      <trkpt lat="43.53155" lon="6.29347">
        <ele>326.8</ele>
        <time>2017-12-03T12:51:08Z</time>
      </trkpt>
      <trkpt lat="43.53156" lon="6.2936">
        <ele>326.8</ele>
        <time>2017-12-03T12:51:16Z</time>
      </trkpt>
      <trkpt lat="43.53157" lon="6.29372">
        <ele>326.8</ele>
        <time>2017-12-03T12:51:24Z</time>
      </trkpt>
      <trkpt lat="43.53157" lon="6.29385">
        <ele>326.7</ele>
        <time>2017-12-03T12:51:32Z</time>
      </trkpt>
      <trkpt lat="43.5316" lon="6.29397">
        <ele>326.7</ele>
        <time>2017-12-03T12:51:39Z</time>
      </trkpt>
      <trkpt lat="43.53162" lon="6.2941">
        <ele>326.7</ele>
        <time>2017-12-03T12:51:50Z</time>
      </trkpt>
      <trkpt lat="43.53164" lon="6.29423">
        <ele>326.7</ele>
        <time>2017-12-03T12:51:58Z</time>
      </trkpt>
      <trkpt lat="43.53167" lon="6.29436">
        <ele>326.8</ele>
        <time>2017-12-03T12:52:06Z</time>
      </trkpt>
      <trkpt lat="43.53168" lon="6.29449">
        <ele>327</ele>
        <time>2017-12-03T12:52:15Z</time>
      </trkpt>
      <trkpt lat="43.53171" lon="6.29461">
        <ele>327</ele>
        <time>2017-12-03T12:52:23Z</time>
      </trkpt>
      <trkpt lat="43.53172" lon="6.29474">
        <ele>326.9</ele>
        <time>2017-12-03T12:52:30Z</time>
      </trkpt>
      <trkpt lat="43.53178" lon="6.29485">
        <ele>326.4</ele>
        <time>2017-12-03T12:52:39Z</time>
      </trkpt>
      <trkpt lat="43.53183" lon="6.29497">
        <ele>325.9</ele>
        <time>2017-12-03T12:52:47Z</time>
      </trkpt>
      <trkpt lat="43.53185" lon="6.2951">
        <ele>325.8</ele>
        <time>2017-12-03T12:52:54Z</time>
      </trkpt>
      <trkpt lat="43.53191" lon="6.29521">
        <ele>325.7</ele>
        <time>2017-12-03T12:53:03Z</time>
      </trkpt>
      <trkpt lat="43.53195" lon="6.29532">
        <ele>325.7</ele>
        <time>2017-12-03T12:53:09Z</time>
      </trkpt>
      <trkpt lat="43.53198" lon="6.29544">
        <ele>325.6</ele>
        <time>2017-12-03T12:53:17Z</time>
      </trkpt>
      <trkpt lat="43.53203" lon="6.29554">
        <ele>325.6</ele>
        <time>2017-12-03T12:53:27Z</time>
      </trkpt>
      <trkpt lat="43.53207" lon="6.29567">
        <ele>325.4</ele>
        <time>2017-12-03T12:53:33Z</time>
      </trkpt>
      <trkpt lat="43.5321" lon="6.2958">
        <ele>325.2</ele>
        <time>2017-12-03T12:53:41Z</time>
      </trkpt>
      <trkpt lat="43.53213" lon="6.29591">
        <ele>325</ele>
        <time>2017-12-03T12:53:49Z</time>
      </trkpt>
      <trkpt lat="43.53218" lon="6.29602">
        <ele>324.7</ele>
        <time>2017-12-03T12:53:58Z</time>
      </trkpt>
      <trkpt lat="43.53222" lon="6.29614">
        <ele>324.3</ele>
        <time>2017-12-03T12:54:09Z</time>
      </trkpt>
      <trkpt lat="43.53225" lon="6.29627">
        <ele>324.1</ele>
        <time>2017-12-03T12:54:18Z</time>
      </trkpt>
      <trkpt lat="43.53225" lon="6.2964">
        <ele>324</ele>
        <time>2017-12-03T12:54:31Z</time>
      </trkpt>
      <trkpt lat="43.53226" lon="6.29653">
        <ele>324</ele>
        <time>2017-12-03T12:54:39Z</time>
      </trkpt>
      <trkpt lat="43.53223" lon="6.29666">
        <ele>323.9</ele>
        <time>2017-12-03T12:54:46Z</time>
      </trkpt>
      <trkpt lat="43.53225" lon="6.29679">
        <ele>323.5</ele>
        <time>2017-12-03T12:54:53Z</time>
      </trkpt>
      <trkpt lat="43.53225" lon="6.29691">
        <ele>323.3</ele>
        <time>2017-12-03T12:55:01Z</time>
      </trkpt>
      <trkpt lat="43.53224" lon="6.29706">
        <ele>323.1</ele>
        <time>2017-12-03T12:55:10Z</time>
      </trkpt>
      <trkpt lat="43.53223" lon="6.29719">
        <ele>323</ele>
        <time>2017-12-03T12:55:17Z</time>
      </trkpt>
      <trkpt lat="43.53219" lon="6.2973">
        <ele>322.8</ele>
        <time>2017-12-03T12:55:28Z</time>
      </trkpt>
      <trkpt lat="43.53218" lon="6.29742">
        <ele>322.7</ele>
        <time>2017-12-03T12:55:38Z</time>
      </trkpt>
      <trkpt lat="43.53218" lon="6.29755">
        <ele>322.5</ele>
        <time>2017-12-03T12:55:45Z</time>
      </trkpt>
      <trkpt lat="43.53218" lon="6.29768">
        <ele>322.4</ele>
        <time>2017-12-03T12:55:53Z</time>
      </trkpt>
      <trkpt lat="43.53217" lon="6.29781">
        <ele>322.4</ele>
        <time>2017-12-03T12:56:01Z</time>
      </trkpt>
      <trkpt lat="43.53215" lon="6.29793">
        <ele>322.5</ele>
        <time>2017-12-03T12:56:09Z</time>
      </trkpt>
      <trkpt lat="43.53213" lon="6.29807">
        <ele>322.6</ele>
        <time>2017-12-03T12:56:17Z</time>
      </trkpt>
      <trkpt lat="43.53213" lon="6.2982">
        <ele>322.7</ele>
        <time>2017-12-03T12:56:25Z</time>
      </trkpt>
      <trkpt lat="43.53212" lon="6.29833">
        <ele>322.7</ele>
        <time>2017-12-03T12:56:32Z</time>
      </trkpt>
      <trkpt lat="43.53211" lon="6.29846">
        <ele>322.9</ele>
        <time>2017-12-03T12:56:41Z</time>
      </trkpt>
      <trkpt lat="43.53211" lon="6.29858">
        <ele>322.9</ele>
        <time>2017-12-03T12:56:49Z</time>
      </trkpt>
      <trkpt lat="43.5321" lon="6.29872">
        <ele>322.9</ele>
        <time>2017-12-03T12:56:57Z</time>
      </trkpt>
      <trkpt lat="43.53206" lon="6.29884">
        <ele>322.9</ele>
        <time>2017-12-03T12:57:07Z</time>
      </trkpt>
      <trkpt lat="43.53201" lon="6.29895">
        <ele>322.8</ele>
        <time>2017-12-03T12:57:16Z</time>
      </trkpt>
      <trkpt lat="43.53197" lon="6.29907">
        <ele>322.8</ele>
        <time>2017-12-03T12:57:23Z</time>
      </trkpt>
      <trkpt lat="43.5319" lon="6.29914">
        <ele>322.8</ele>
        <time>2017-12-03T12:57:32Z</time>
      </trkpt>
      <trkpt lat="43.53183" lon="6.29923">
        <ele>322.8</ele>
        <time>2017-12-03T12:57:39Z</time>
      </trkpt>
      <trkpt lat="43.53177" lon="6.29934">
        <ele>322.6</ele>
        <time>2017-12-03T12:57:49Z</time>
      </trkpt>
      <trkpt lat="43.53169" lon="6.29943">
        <ele>322.4</ele>
        <time>2017-12-03T12:58:02Z</time>
      </trkpt>
      <trkpt lat="43.53161" lon="6.29951">
        <ele>322.4</ele>
        <time>2017-12-03T12:58:10Z</time>
      </trkpt>
      <trkpt lat="43.53155" lon="6.2996">
        <ele>322.3</ele>
        <time>2017-12-03T12:58:21Z</time>
      </trkpt>
      <trkpt lat="43.53146" lon="6.29966">
        <ele>322.3</ele>
        <time>2017-12-03T12:58:33Z</time>
      </trkpt>
      <trkpt lat="43.53139" lon="6.29975">
        <ele>322.2</ele>
        <time>2017-12-03T12:58:47Z</time>
      </trkpt>
      <trkpt lat="43.53131" lon="6.29981">
        <ele>322.2</ele>
        <time>2017-12-03T12:58:59Z</time>
      </trkpt>
      <trkpt lat="43.53129" lon="6.29993">
        <ele>321.8</ele>
        <time>2017-12-03T12:59:23Z</time>
      </trkpt>
      <trkpt lat="43.53124" lon="6.30004">
        <ele>321.5</ele>
        <time>2017-12-03T13:00:22Z</time>
      </trkpt>
      <trkpt lat="43.53123" lon="6.30016">
        <ele>320.8</ele>
        <time>2017-12-03T13:01:20Z</time>
      </trkpt>
      <trkpt lat="43.53121" lon="6.30029">
        <ele>319.7</ele>
        <time>2017-12-03T13:01:31Z</time>
      </trkpt>
      <trkpt lat="43.53121" lon="6.30042">
        <ele>318.1</ele>
        <time>2017-12-03T13:01:49Z</time>
      </trkpt>
      <trkpt lat="43.5312" lon="6.30055">
        <ele>316.1</ele>
        <time>2017-12-03T13:02:09Z</time>
      </trkpt>
      <trkpt lat="43.53114" lon="6.30065">
        <ele>314.9</ele>
        <time>2017-12-03T13:02:25Z</time>
      </trkpt>
      <trkpt lat="43.53113" lon="6.30078">
        <ele>314.1</ele>
        <time>2017-12-03T13:02:34Z</time>
      </trkpt>
      <trkpt lat="43.53117" lon="6.3009">
        <ele>313.5</ele>
        <time>2017-12-03T13:02:45Z</time>
      </trkpt>
      <trkpt lat="43.53123" lon="6.301">
        <ele>313.3</ele>
        <time>2017-12-03T13:03:26Z</time>
      </trkpt>
      <trkpt lat="43.5313" lon="6.30107">
        <ele>314.6</ele>
        <time>2017-12-03T13:03:56Z</time>
      </trkpt>
      <trkpt lat="43.53133" lon="6.3012">
        <ele>315.2</ele>
        <time>2017-12-03T13:04:14Z</time>
      </trkpt>
      <trkpt lat="43.53136" lon="6.30132">
        <ele>316.1</ele>
        <time>2017-12-03T13:04:28Z</time>
      </trkpt>
      <trkpt lat="43.53139" lon="6.30144">
        <ele>317.1</ele>
        <time>2017-12-03T13:04:38Z</time>
      </trkpt>
      <trkpt lat="43.5314" lon="6.30157">
        <ele>318.1</ele>
        <time>2017-12-03T13:04:50Z</time>
      </trkpt>
      <trkpt lat="43.53135" lon="6.30167">
        <ele>320</ele>
        <time>2017-12-03T13:05:09Z</time>
      </trkpt>
      <trkpt lat="43.53128" lon="6.30175">
        <ele>321.4</ele>
        <time>2017-12-03T13:05:25Z</time>
      </trkpt>
      <trkpt lat="43.53121" lon="6.30183">
        <ele>323.3</ele>
        <time>2017-12-03T13:05:43Z</time>
      </trkpt>
      <trkpt lat="43.53118" lon="6.30196">
        <ele>324.6</ele>
        <time>2017-12-03T13:05:55Z</time>
      </trkpt>
      <trkpt lat="43.53116" lon="6.30208">
        <ele>325.7</ele>
        <time>2017-12-03T13:06:07Z</time>
      </trkpt>
      <trkpt lat="43.53109" lon="6.30215">
        <ele>326.6</ele>
        <time>2017-12-03T13:06:19Z</time>
      </trkpt>
      <trkpt lat="43.53099" lon="6.30215">
        <ele>327.3</ele>
        <time>2017-12-03T13:06:29Z</time>
      </trkpt>
      <trkpt lat="43.5309" lon="6.30217">
        <ele>328.1</ele>
        <time>2017-12-03T13:06:39Z</time>
      </trkpt>
      <trkpt lat="43.53085" lon="6.30228">
        <ele>329.6</ele>
        <time>2017-12-03T13:06:55Z</time>
      </trkpt>
      <trkpt lat="43.53084" lon="6.30241">
        <ele>330.6</ele>
        <time>2017-12-03T13:07:06Z</time>
      </trkpt>
      <trkpt lat="43.53086" lon="6.30253">
        <ele>331.9</ele>
        <time>2017-12-03T13:07:19Z</time>
      </trkpt>
      <trkpt lat="43.53094" lon="6.30258">
        <ele>332.2</ele>
        <time>2017-12-03T13:07:30Z</time>
      </trkpt>
      <trkpt lat="43.53103" lon="6.30262">
        <ele>332.1</ele>
        <time>2017-12-03T13:07:39Z</time>
      </trkpt>
      <trkpt lat="43.53105" lon="6.30275">
        <ele>330.8</ele>
        <time>2017-12-03T13:08:08Z</time>
      </trkpt>
      <trkpt lat="43.53097" lon="6.30283">
        <ele>330</ele>
        <time>2017-12-03T13:08:44Z</time>
      </trkpt>
      <trkpt lat="43.53088" lon="6.30279">
        <ele>330.4</ele>
        <time>2017-12-03T13:08:56Z</time>
      </trkpt>
      <trkpt lat="43.53079" lon="6.30277">
        <ele>331.2</ele>
        <time>2017-12-03T13:09:09Z</time>
      </trkpt>
      <trkpt lat="43.53071" lon="6.30281">
        <ele>331.7</ele>
        <time>2017-12-03T13:09:21Z</time>
      </trkpt>
      <trkpt lat="43.53064" lon="6.3029">
        <ele>332.3</ele>
        <time>2017-12-03T13:09:33Z</time>
      </trkpt>
      <trkpt lat="43.53062" lon="6.30303">
        <ele>332.6</ele>
        <time>2017-12-03T13:09:43Z</time>
      </trkpt>
      <trkpt lat="43.53061" lon="6.30317">
        <ele>332.9</ele>
        <time>2017-12-03T13:09:54Z</time>
      </trkpt>
      <trkpt lat="43.53061" lon="6.30329">
        <ele>333.3</ele>
        <time>2017-12-03T13:10:06Z</time>
      </trkpt>
      <trkpt lat="43.53062" lon="6.30342">
        <ele>333.6</ele>
        <time>2017-12-03T13:10:17Z</time>
      </trkpt>
      <trkpt lat="43.53063" lon="6.30354">
        <ele>333.8</ele>
        <time>2017-12-03T13:10:29Z</time>
      </trkpt>
      <trkpt lat="43.53064" lon="6.30367">
        <ele>334.3</ele>
        <time>2017-12-03T13:10:40Z</time>
      </trkpt>
      <trkpt lat="43.53067" lon="6.3038">
        <ele>334.5</ele>
        <time>2017-12-03T13:10:52Z</time>
      </trkpt>
      <trkpt lat="43.53067" lon="6.30393">
        <ele>334.6</ele>
        <time>2017-12-03T13:11:03Z</time>
      </trkpt>
      <trkpt lat="43.53067" lon="6.30407">
        <ele>334.6</ele>
        <time>2017-12-03T13:11:12Z</time>
      </trkpt>
      <trkpt lat="43.53068" lon="6.3042">
        <ele>334.6</ele>
        <time>2017-12-03T13:11:23Z</time>
      </trkpt>
      <trkpt lat="43.53068" lon="6.30434">
        <ele>334.9</ele>
        <time>2017-12-03T13:11:40Z</time>
      </trkpt>
      <trkpt lat="43.53068" lon="6.30447">
        <ele>335</ele>
        <time>2017-12-03T13:11:51Z</time>
      </trkpt>
      <trkpt lat="43.53068" lon="6.30459">
        <ele>335.3</ele>
        <time>2017-12-03T13:12:01Z</time>
      </trkpt>
      <trkpt lat="43.53068" lon="6.30472">
        <ele>335.7</ele>
        <time>2017-12-03T13:12:11Z</time>
      </trkpt>
      <trkpt lat="43.53067" lon="6.30484">
        <ele>336.3</ele>
        <time>2017-12-03T13:12:24Z</time>
      </trkpt>
      <trkpt lat="43.5306" lon="6.30492">
        <ele>337.2</ele>
        <time>2017-12-03T13:12:40Z</time>
      </trkpt>
      <trkpt lat="43.53066" lon="6.30502">
        <ele>337.9</ele>
        <time>2017-12-03T13:12:50Z</time>
      </trkpt>
      <trkpt lat="43.53074" lon="6.3051">
        <ele>338.4</ele>
        <time>2017-12-03T13:13:00Z</time>
      </trkpt>
      <trkpt lat="43.53083" lon="6.30516">
        <ele>338.7</ele>
        <time>2017-12-03T13:13:16Z</time>
      </trkpt>
      <trkpt lat="43.53091" lon="6.30521">
        <ele>338.8</ele>
        <time>2017-12-03T13:13:26Z</time>
      </trkpt>
      <trkpt lat="43.531" lon="6.30517">
        <ele>338.3</ele>
        <time>2017-12-03T13:13:53Z</time>
      </trkpt>
      <trkpt lat="43.53105" lon="6.30529">
        <ele>338.1</ele>
        <time>2017-12-03T13:14:04Z</time>
      </trkpt>
      <trkpt lat="43.53112" lon="6.30537">
        <ele>337.9</ele>
        <time>2017-12-03T13:14:15Z</time>
      </trkpt>
      <trkpt lat="43.53118" lon="6.30546">
        <ele>338</ele>
        <time>2017-12-03T13:14:24Z</time>
      </trkpt>
      <trkpt lat="43.53125" lon="6.30555">
        <ele>338.1</ele>
        <time>2017-12-03T13:14:37Z</time>
      </trkpt>
      <trkpt lat="43.53128" lon="6.30567">
        <ele>338.3</ele>
        <time>2017-12-03T13:14:55Z</time>
      </trkpt>
      <trkpt lat="43.53134" lon="6.30577">
        <ele>339.3</ele>
        <time>2017-12-03T13:15:24Z</time>
      </trkpt>
      <trkpt lat="43.53137" lon="6.30564">
        <ele>338.8</ele>
        <time>2017-12-03T13:15:42Z</time>
      </trkpt>
      <trkpt lat="43.5314" lon="6.30552">
        <ele>338.5</ele>
        <time>2017-12-03T13:15:56Z</time>
      </trkpt>
      <trkpt lat="43.53147" lon="6.30561">
        <ele>338.7</ele>
        <time>2017-12-03T13:16:18Z</time>
      </trkpt>
      <trkpt lat="43.53154" lon="6.30569">
        <ele>338.9</ele>
        <time>2017-12-03T13:16:48Z</time>
      </trkpt>
      <trkpt lat="43.53158" lon="6.3058">
        <ele>339.3</ele>
        <time>2017-12-03T13:17:03Z</time>
      </trkpt>
      <trkpt lat="43.53165" lon="6.30589">
        <ele>340</ele>
        <time>2017-12-03T13:17:13Z</time>
      </trkpt>
      <trkpt lat="43.53172" lon="6.30598">
        <ele>340.5</ele>
        <time>2017-12-03T13:17:21Z</time>
      </trkpt>
      <trkpt lat="43.53179" lon="6.30605">
        <ele>340.9</ele>
        <time>2017-12-03T13:17:29Z</time>
      </trkpt>
      <trkpt lat="43.53188" lon="6.30609">
        <ele>341.5</ele>
        <time>2017-12-03T13:17:39Z</time>
      </trkpt>
      <trkpt lat="43.53195" lon="6.30618">
        <ele>342.4</ele>
        <time>2017-12-03T13:17:55Z</time>
      </trkpt>
      <trkpt lat="43.53202" lon="6.30626">
        <ele>343.3</ele>
        <time>2017-12-03T13:18:07Z</time>
      </trkpt>
      <trkpt lat="43.5321" lon="6.30634">
        <ele>343.9</ele>
        <time>2017-12-03T13:18:18Z</time>
      </trkpt>
      <trkpt lat="43.53217" lon="6.30641">
        <ele>344.5</ele>
        <time>2017-12-03T13:18:28Z</time>
      </trkpt>
      <trkpt lat="43.53221" lon="6.30652">
        <ele>345.1</ele>
        <time>2017-12-03T13:18:39Z</time>
      </trkpt>
      <trkpt lat="43.53229" lon="6.3066">
        <ele>345.6</ele>
        <time>2017-12-03T13:18:49Z</time>
      </trkpt>
      <trkpt lat="43.53238" lon="6.30665">
        <ele>345.8</ele>
        <time>2017-12-03T13:18:59Z</time>
      </trkpt>
      <trkpt lat="43.53247" lon="6.30667">
        <ele>345.9</ele>
        <time>2017-12-03T13:19:08Z</time>
      </trkpt>
      <trkpt lat="43.53256" lon="6.30668">
        <ele>346</ele>
        <time>2017-12-03T13:19:16Z</time>
      </trkpt>
      <trkpt lat="43.5326" lon="6.3068">
        <ele>347.1</ele>
        <time>2017-12-03T13:19:45Z</time>
      </trkpt>
      <trkpt lat="43.53265" lon="6.30691">
        <ele>347.5</ele>
        <time>2017-12-03T13:20:00Z</time>
      </trkpt>
      <trkpt lat="43.53274" lon="6.30696">
        <ele>348.1</ele>
        <time>2017-12-03T13:20:34Z</time>
      </trkpt>
      <trkpt lat="43.53274" lon="6.30709">
        <ele>347.8</ele>
        <time>2017-12-03T13:20:43Z</time>
      </trkpt>
      <trkpt lat="43.53283" lon="6.30715">
        <ele>346.4</ele>
        <time>2017-12-03T13:20:53Z</time>
      </trkpt>
      <trkpt lat="43.53291" lon="6.30723">
        <ele>345.1</ele>
        <time>2017-12-03T13:21:05Z</time>
      </trkpt>
      <trkpt lat="43.533" lon="6.30717">
        <ele>344.4</ele>
        <time>2017-12-03T13:21:12Z</time>
      </trkpt>
      <trkpt lat="43.53308" lon="6.30711">
        <ele>343.9</ele>
        <time>2017-12-03T13:21:19Z</time>
      </trkpt>
      <trkpt lat="43.53316" lon="6.30704">
        <ele>343.5</ele>
        <time>2017-12-03T13:21:28Z</time>
      </trkpt>
      <trkpt lat="43.53324" lon="6.30698">
        <ele>343.2</ele>
        <time>2017-12-03T13:21:39Z</time>
      </trkpt>
      <trkpt lat="43.53332" lon="6.30691">
        <ele>343.1</ele>
        <time>2017-12-03T13:21:49Z</time>
      </trkpt>
      <trkpt lat="43.53341" lon="6.30686">
        <ele>343.1</ele>
        <time>2017-12-03T13:21:59Z</time>
      </trkpt>
      <trkpt lat="43.53349" lon="6.30681">
        <ele>343</ele>
        <time>2017-12-03T13:22:08Z</time>
      </trkpt>
      <trkpt lat="43.53357" lon="6.30673">
        <ele>342.7</ele>
        <time>2017-12-03T13:22:19Z</time>
      </trkpt>
      <trkpt lat="43.53363" lon="6.30663">
        <ele>342.5</ele>
        <time>2017-12-03T13:22:26Z</time>
      </trkpt>
      <trkpt lat="43.53371" lon="6.30655">
        <ele>342.3</ele>
        <time>2017-12-03T13:22:32Z</time>
      </trkpt>
      <trkpt lat="43.5338" lon="6.30658">
        <ele>342</ele>
        <time>2017-12-03T13:22:53Z</time>
      </trkpt>
      <trkpt lat="43.53389" lon="6.30652">
        <ele>342</ele>
        <time>2017-12-03T13:23:00Z</time>
      </trkpt>
      <trkpt lat="43.53396" lon="6.30643">
        <ele>342</ele>
        <time>2017-12-03T13:23:06Z</time>
      </trkpt>
      <trkpt lat="43.53402" lon="6.30633">
        <ele>342</ele>
        <time>2017-12-03T13:23:13Z</time>
      </trkpt>
      <trkpt lat="43.53409" lon="6.30623">
        <ele>342</ele>
        <time>2017-12-03T13:23:23Z</time>
      </trkpt>
      <trkpt lat="43.53416" lon="6.30614">
        <ele>342.9</ele>
        <time>2017-12-03T13:23:35Z</time>
      </trkpt>
      <trkpt lat="43.53424" lon="6.30607">
        <ele>343.7</ele>
        <time>2017-12-03T13:23:44Z</time>
      </trkpt>
      <trkpt lat="43.53434" lon="6.30606">
        <ele>344.6</ele>
        <time>2017-12-03T13:23:55Z</time>
      </trkpt>
      <trkpt lat="43.53443" lon="6.30605">
        <ele>345.3</ele>
        <time>2017-12-03T13:24:06Z</time>
      </trkpt>
      <trkpt lat="43.53452" lon="6.30605">
        <ele>345.7</ele>
        <time>2017-12-03T13:24:17Z</time>
      </trkpt>
      <trkpt lat="43.53462" lon="6.30605">
        <ele>346.2</ele>
        <time>2017-12-03T13:24:28Z</time>
      </trkpt>
      <trkpt lat="43.53471" lon="6.30606">
        <ele>346.7</ele>
        <time>2017-12-03T13:24:39Z</time>
      </trkpt>
      <trkpt lat="43.5348" lon="6.30602">
        <ele>347</ele>
        <time>2017-12-03T13:24:48Z</time>
      </trkpt>
      <trkpt lat="43.5349" lon="6.30602">
        <ele>347.2</ele>
        <time>2017-12-03T13:24:57Z</time>
      </trkpt>
      <trkpt lat="43.535" lon="6.306">
        <ele>347.3</ele>
        <time>2017-12-03T13:25:06Z</time>
      </trkpt>
      <trkpt lat="43.53509" lon="6.30598">
        <ele>347.3</ele>
        <time>2017-12-03T13:25:16Z</time>
      </trkpt>
      <trkpt lat="43.53518" lon="6.30597">
        <ele>347.3</ele>
        <time>2017-12-03T13:25:26Z</time>
      </trkpt>
      <trkpt lat="43.53528" lon="6.30596">
        <ele>347.3</ele>
        <time>2017-12-03T13:25:35Z</time>
      </trkpt>
      <trkpt lat="43.53537" lon="6.30593">
        <ele>347.3</ele>
        <time>2017-12-03T13:25:45Z</time>
      </trkpt>
      <trkpt lat="43.53547" lon="6.30592">
        <ele>347.3</ele>
        <time>2017-12-03T13:25:55Z</time>
      </trkpt>
      <trkpt lat="43.53556" lon="6.30591">
        <ele>347.3</ele>
        <time>2017-12-03T13:26:05Z</time>
      </trkpt>
      <trkpt lat="43.53566" lon="6.30589">
        <ele>347.2</ele>
        <time>2017-12-03T13:26:15Z</time>
      </trkpt>
      <trkpt lat="43.53575" lon="6.30588">
        <ele>347.2</ele>
        <time>2017-12-03T13:26:24Z</time>
      </trkpt>
      <trkpt lat="43.53585" lon="6.30591">
        <ele>347.1</ele>
        <time>2017-12-03T13:26:33Z</time>
      </trkpt>
      <trkpt lat="43.53594" lon="6.30592">
        <ele>347</ele>
        <time>2017-12-03T13:26:42Z</time>
      </trkpt>
      <trkpt lat="43.53603" lon="6.30597">
        <ele>347</ele>
        <time>2017-12-03T13:26:53Z</time>
      </trkpt>
      <trkpt lat="43.53604" lon="6.30611">
        <ele>346.8</ele>
        <time>2017-12-03T13:27:01Z</time>
      </trkpt>
      <trkpt lat="43.53605" lon="6.30623">
        <ele>346.3</ele>
        <time>2017-12-03T13:27:11Z</time>
      </trkpt>
      <trkpt lat="43.53613" lon="6.30616">
        <ele>345.3</ele>
        <time>2017-12-03T13:28:15Z</time>
      </trkpt>
      <trkpt lat="43.53623" lon="6.30617">
        <ele>345.1</ele>
        <time>2017-12-03T13:29:11Z</time>
      </trkpt>
      <trkpt lat="43.53629" lon="6.30626">
        <ele>345.6</ele>
        <time>2017-12-03T13:29:32Z</time>
      </trkpt>
      <trkpt lat="43.53638" lon="6.30633">
        <ele>345.7</ele>
        <time>2017-12-03T13:29:42Z</time>
      </trkpt>
      <trkpt lat="43.53647" lon="6.30636">
        <ele>346.2</ele>
        <time>2017-12-03T13:29:54Z</time>
      </trkpt>
      <trkpt lat="43.53656" lon="6.3064">
        <ele>346.7</ele>
        <time>2017-12-03T13:30:05Z</time>
      </trkpt>
      <trkpt lat="43.53665" lon="6.30641">
        <ele>346.9</ele>
        <time>2017-12-03T13:30:12Z</time>
      </trkpt>
      <trkpt lat="43.53674" lon="6.30644">
        <ele>347.4</ele>
        <time>2017-12-03T13:30:24Z</time>
      </trkpt>
      <trkpt lat="43.53684" lon="6.30642">
        <ele>347.8</ele>
        <time>2017-12-03T13:30:35Z</time>
      </trkpt>
      <trkpt lat="43.53693" lon="6.30644">
        <ele>348.4</ele>
        <time>2017-12-03T13:30:50Z</time>
      </trkpt>
      <trkpt lat="43.53702" lon="6.30644">
        <ele>349.1</ele>
        <time>2017-12-03T13:31:02Z</time>
      </trkpt>
      <trkpt lat="43.53712" lon="6.30641">
        <ele>349.7</ele>
        <time>2017-12-03T13:31:15Z</time>
      </trkpt>
      <trkpt lat="43.53721" lon="6.30636">
        <ele>350.1</ele>
        <time>2017-12-03T13:31:26Z</time>
      </trkpt>
      <trkpt lat="43.5373" lon="6.3063">
        <ele>351.1</ele>
        <time>2017-12-03T13:31:38Z</time>
      </trkpt>
      <trkpt lat="43.53739" lon="6.30629">
        <ele>351.9</ele>
        <time>2017-12-03T13:31:49Z</time>
      </trkpt>
      <trkpt lat="43.53747" lon="6.30636">
        <ele>352.4</ele>
        <time>2017-12-03T13:32:03Z</time>
      </trkpt>
      <trkpt lat="43.53756" lon="6.30632">
        <ele>353</ele>
        <time>2017-12-03T13:32:32Z</time>
      </trkpt>
      <trkpt lat="43.53765" lon="6.30638">
        <ele>353.2</ele>
        <time>2017-12-03T13:32:42Z</time>
      </trkpt>
      <trkpt lat="43.53773" lon="6.30642">
        <ele>353.4</ele>
        <time>2017-12-03T13:32:53Z</time>
      </trkpt>
      <trkpt lat="43.53781" lon="6.3065">
        <ele>353.9</ele>
        <time>2017-12-03T13:33:04Z</time>
      </trkpt>
      <trkpt lat="43.53789" lon="6.30657">
        <ele>354.1</ele>
        <time>2017-12-03T13:33:14Z</time>
      </trkpt>
      <trkpt lat="43.53799" lon="6.30659">
        <ele>354.2</ele>
        <time>2017-12-03T13:33:27Z</time>
      </trkpt>
      <trkpt lat="43.53808" lon="6.30662">
        <ele>354.3</ele>
        <time>2017-12-03T13:33:36Z</time>
      </trkpt>
      <trkpt lat="43.53815" lon="6.3067">
        <ele>354.3</ele>
        <time>2017-12-03T13:33:45Z</time>
      </trkpt>
      <trkpt lat="43.53822" lon="6.30678">
        <ele>354</ele>
        <time>2017-12-03T13:33:52Z</time>
      </trkpt>
      <trkpt lat="43.53829" lon="6.30687">
        <ele>353.5</ele>
        <time>2017-12-03T13:34:01Z</time>
      </trkpt>
      <trkpt lat="43.53838" lon="6.30695">
        <ele>353.2</ele>
        <time>2017-12-03T13:34:08Z</time>
      </trkpt>
      <trkpt lat="43.53846" lon="6.30702">
        <ele>353.1</ele>
        <time>2017-12-03T13:34:17Z</time>
      </trkpt>
      <trkpt lat="43.53853" lon="6.30712">
        <ele>353.1</ele>
        <time>2017-12-03T13:34:25Z</time>
      </trkpt>
      <trkpt lat="43.53861" lon="6.30717">
        <ele>353</ele>
        <time>2017-12-03T13:34:34Z</time>
      </trkpt>
      <trkpt lat="43.53869" lon="6.30724">
        <ele>353</ele>
        <time>2017-12-03T13:34:41Z</time>
      </trkpt>
      <trkpt lat="43.53877" lon="6.30731">
        <ele>353.3</ele>
        <time>2017-12-03T13:34:51Z</time>
      </trkpt>
      <trkpt lat="43.53885" lon="6.30737">
        <ele>353.4</ele>
        <time>2017-12-03T13:34:59Z</time>
      </trkpt>
      <trkpt lat="43.53895" lon="6.30738">
        <ele>353.8</ele>
        <time>2017-12-03T13:35:08Z</time>
      </trkpt>
      <trkpt lat="43.53902" lon="6.30747">
        <ele>354.1</ele>
        <time>2017-12-03T13:35:18Z</time>
      </trkpt>
      <trkpt lat="43.53911" lon="6.30751">
        <ele>354.6</ele>
        <time>2017-12-03T13:35:26Z</time>
      </trkpt>
      <trkpt lat="43.53918" lon="6.30759">
        <ele>355</ele>
        <time>2017-12-03T13:35:34Z</time>
      </trkpt>
      <trkpt lat="43.53928" lon="6.30762">
        <ele>355.2</ele>
        <time>2017-12-03T13:35:43Z</time>
      </trkpt>
      <trkpt lat="43.53937" lon="6.30765">
        <ele>355.3</ele>
        <time>2017-12-03T13:35:51Z</time>
      </trkpt>
      <trkpt lat="43.53946" lon="6.30767">
        <ele>355.4</ele>
        <time>2017-12-03T13:36:00Z</time>
      </trkpt>
      <trkpt lat="43.53955" lon="6.30769">
        <ele>355.5</ele>
        <time>2017-12-03T13:36:13Z</time>
      </trkpt>
      <trkpt lat="43.53963" lon="6.30777">
        <ele>355.5</ele>
        <time>2017-12-03T13:36:22Z</time>
      </trkpt>
      <trkpt lat="43.53967" lon="6.30788">
        <ele>355.5</ele>
        <time>2017-12-03T13:36:30Z</time>
      </trkpt>
      <trkpt lat="43.53975" lon="6.30794">
        <ele>355.6</ele>
        <time>2017-12-03T13:36:38Z</time>
      </trkpt>
      <trkpt lat="43.53982" lon="6.30803">
        <ele>355.9</ele>
        <time>2017-12-03T13:36:48Z</time>
      </trkpt>
      <trkpt lat="43.5399" lon="6.30812">
        <ele>356</ele>
        <time>2017-12-03T13:36:57Z</time>
      </trkpt>
      <trkpt lat="43.53999" lon="6.30817">
        <ele>356.1</ele>
        <time>2017-12-03T13:37:06Z</time>
      </trkpt>
      <trkpt lat="43.54007" lon="6.30826">
        <ele>356.3</ele>
        <time>2017-12-03T13:37:14Z</time>
      </trkpt>
      <trkpt lat="43.54015" lon="6.30834">
        <ele>356.5</ele>
        <time>2017-12-03T13:37:23Z</time>
      </trkpt>
      <trkpt lat="43.54023" lon="6.30841">
        <ele>356.6</ele>
        <time>2017-12-03T13:37:31Z</time>
      </trkpt>
      <trkpt lat="43.54029" lon="6.3085">
        <ele>356.6</ele>
        <time>2017-12-03T13:37:39Z</time>
      </trkpt>
      <trkpt lat="43.54036" lon="6.3086">
        <ele>356.6</ele>
        <time>2017-12-03T13:37:47Z</time>
      </trkpt>
      <trkpt lat="43.54043" lon="6.3087">
        <ele>356.7</ele>
        <time>2017-12-03T13:37:56Z</time>
      </trkpt>
      <trkpt lat="43.54051" lon="6.30873">
        <ele>356.9</ele>
        <time>2017-12-03T13:38:06Z</time>
      </trkpt>
      <trkpt lat="43.5406" lon="6.30881">
        <ele>357.1</ele>
        <time>2017-12-03T13:38:14Z</time>
      </trkpt>
      <trkpt lat="43.54067" lon="6.30891">
        <ele>357.2</ele>
        <time>2017-12-03T13:38:23Z</time>
      </trkpt>
      <trkpt lat="43.54076" lon="6.30897">
        <ele>357.4</ele>
        <time>2017-12-03T13:38:33Z</time>
      </trkpt>
      <trkpt lat="43.54085" lon="6.30902">
        <ele>357.5</ele>
        <time>2017-12-03T13:38:39Z</time>
      </trkpt>
      <trkpt lat="43.54091" lon="6.30911">
        <ele>357.7</ele>
        <time>2017-12-03T13:38:50Z</time>
      </trkpt>
      <trkpt lat="43.5409" lon="6.30924">
        <ele>357.8</ele>
        <time>2017-12-03T13:38:59Z</time>
      </trkpt>
      <trkpt lat="43.54089" lon="6.30937">
        <ele>357.8</ele>
        <time>2017-12-03T13:39:08Z</time>
      </trkpt>
      <trkpt lat="43.54091" lon="6.3095">
        <ele>357.7</ele>
        <time>2017-12-03T13:39:20Z</time>
      </trkpt>
      <trkpt lat="43.54088" lon="6.30962">
        <ele>357.7</ele>
        <time>2017-12-03T13:39:26Z</time>
      </trkpt>
      <trkpt lat="43.54085" lon="6.30975">
        <ele>357.6</ele>
        <time>2017-12-03T13:39:33Z</time>
      </trkpt>
      <trkpt lat="43.54081" lon="6.30987">
        <ele>356.8</ele>
        <time>2017-12-03T13:40:09Z</time>
      </trkpt>
      <trkpt lat="43.54085" lon="6.30999">
        <ele>356.3</ele>
        <time>2017-12-03T13:40:20Z</time>
      </trkpt>
      <trkpt lat="43.54083" lon="6.31012">
        <ele>356.1</ele>
        <time>2017-12-03T13:40:42Z</time>
      </trkpt>
      <trkpt lat="43.54085" lon="6.31025">
        <ele>356.1</ele>
        <time>2017-12-03T13:40:51Z</time>
      </trkpt>
      <trkpt lat="43.54085" lon="6.31038">
        <ele>356.4</ele>
        <time>2017-12-03T13:41:01Z</time>
      </trkpt>
      <trkpt lat="43.54086" lon="6.31051">
        <ele>356.5</ele>
        <time>2017-12-03T13:41:11Z</time>
      </trkpt>
      <trkpt lat="43.54085" lon="6.31065">
        <ele>356.4</ele>
        <time>2017-12-03T13:41:20Z</time>
      </trkpt>
      <trkpt lat="43.54083" lon="6.31078">
        <ele>356.4</ele>
        <time>2017-12-03T13:41:29Z</time>
      </trkpt>
      <trkpt lat="43.54082" lon="6.31091">
        <ele>356.3</ele>
        <time>2017-12-03T13:41:38Z</time>
      </trkpt>
      <trkpt lat="43.54085" lon="6.31103">
        <ele>356.2</ele>
        <time>2017-12-03T13:41:49Z</time>
      </trkpt>
      <trkpt lat="43.54094" lon="6.31098">
        <ele>356.2</ele>
        <time>2017-12-03T13:41:57Z</time>
      </trkpt>
      <trkpt lat="43.541" lon="6.31108">
        <ele>356.2</ele>
        <time>2017-12-03T13:42:11Z</time>
      </trkpt>
      <trkpt lat="43.54099" lon="6.31121">
        <ele>356.2</ele>
        <time>2017-12-03T13:42:17Z</time>
      </trkpt>
      <trkpt lat="43.54103" lon="6.31132">
        <ele>356.3</ele>
        <time>2017-12-03T13:42:25Z</time>
      </trkpt>
      <trkpt lat="43.54106" lon="6.31145">
        <ele>356.5</ele>
        <time>2017-12-03T13:42:35Z</time>
      </trkpt>
      <trkpt lat="43.54108" lon="6.31157">
        <ele>356.7</ele>
        <time>2017-12-03T13:42:43Z</time>
      </trkpt>
      <trkpt lat="43.54109" lon="6.3117">
        <ele>356.8</ele>
        <time>2017-12-03T13:42:53Z</time>
      </trkpt>
      <trkpt lat="43.54114" lon="6.31181">
        <ele>357.1</ele>
        <time>2017-12-03T13:43:04Z</time>
      </trkpt>
      <trkpt lat="43.54114" lon="6.31195">
        <ele>357.2</ele>
        <time>2017-12-03T13:43:12Z</time>
      </trkpt>
      <trkpt lat="43.54118" lon="6.31208">
        <ele>357.5</ele>
        <time>2017-12-03T13:43:24Z</time>
      </trkpt>
      <trkpt lat="43.5412" lon="6.3122">
        <ele>358.1</ele>
        <time>2017-12-03T13:43:35Z</time>
      </trkpt>
      <trkpt lat="43.54121" lon="6.31233">
        <ele>358.6</ele>
        <time>2017-12-03T13:43:45Z</time>
      </trkpt>
      <trkpt lat="43.54122" lon="6.31246">
        <ele>358.8</ele>
        <time>2017-12-03T13:43:54Z</time>
      </trkpt>
      <trkpt lat="43.54127" lon="6.31258">
        <ele>358.8</ele>
        <time>2017-12-03T13:44:02Z</time>
      </trkpt>
      <trkpt lat="43.54131" lon="6.3127">
        <ele>358.8</ele>
        <time>2017-12-03T13:44:10Z</time>
      </trkpt>
      <trkpt lat="43.54132" lon="6.31283">
        <ele>358.7</ele>
        <time>2017-12-03T13:44:15Z</time>
      </trkpt>
      <trkpt lat="43.54138" lon="6.31292">
        <ele>358.7</ele>
        <time>2017-12-03T13:44:22Z</time>
      </trkpt>
      <trkpt lat="43.54146" lon="6.313">
        <ele>358.7</ele>
        <time>2017-12-03T13:44:31Z</time>
      </trkpt>
      <trkpt lat="43.54156" lon="6.31302">
        <ele>358.6</ele>
        <time>2017-12-03T13:44:38Z</time>
      </trkpt>
      <trkpt lat="43.54166" lon="6.31305">
        <ele>358.4</ele>
        <time>2017-12-03T13:44:46Z</time>
      </trkpt>
      <trkpt lat="43.54175" lon="6.3131">
        <ele>358.2</ele>
        <time>2017-12-03T13:44:55Z</time>
      </trkpt>
      <trkpt lat="43.54185" lon="6.31312">
        <ele>358</ele>
        <time>2017-12-03T13:45:04Z</time>
      </trkpt>
      <trkpt lat="43.54194" lon="6.3131">
        <ele>357.9</ele>
        <time>2017-12-03T13:45:10Z</time>
      </trkpt>
      <trkpt lat="43.54203" lon="6.31312">
        <ele>357.9</ele>
        <time>2017-12-03T13:45:18Z</time>
      </trkpt>
      <trkpt lat="43.54212" lon="6.31318">
        <ele>357.8</ele>
        <time>2017-12-03T13:45:28Z</time>
      </trkpt>
      <trkpt lat="43.5422" lon="6.31324">
        <ele>357.8</ele>
        <time>2017-12-03T13:45:37Z</time>
      </trkpt>
      <trkpt lat="43.54223" lon="6.31311">
        <ele>357.7</ele>
        <time>2017-12-03T13:46:01Z</time>
      </trkpt>
      <trkpt lat="43.54233" lon="6.31311">
        <ele>357.7</ele>
        <time>2017-12-03T13:46:13Z</time>
      </trkpt>
      <trkpt lat="43.54241" lon="6.31313">
        <ele>357.6</ele>
        <time>2017-12-03T13:46:45Z</time>
      </trkpt>
      <trkpt lat="43.54243" lon="6.31325">
        <ele>357.6</ele>
        <time>2017-12-03T13:46:54Z</time>
      </trkpt>
      <trkpt lat="43.54252" lon="6.31331">
        <ele>357.6</ele>
        <time>2017-12-03T13:47:06Z</time>
      </trkpt>
      <trkpt lat="43.5426" lon="6.31337">
        <ele>357.8</ele>
        <time>2017-12-03T13:47:16Z</time>
      </trkpt>
    </trkseg>
  </trk>
</gpx>